<?xml version='1.0' encoding='UTF-8'?><gpx version="1.1" creator="JPX - https://github.com/jenetics/jpx" xmlns="http://www.topografix.com/GPX/1/1"><trk><trkseg><trkpt lat="48.35772368088959" lon="-4.049730754064865"><ele>241.0</ele><time>2026-04-19T13:16:42.999Z</time></trkpt><trkpt lat="48.357735151405016" lon="-4.04953315955174"><ele>241.00000000000003</ele><time>2026-04-19T13:16:44.999Z</time></trkpt><trkpt lat="48.357742735663706" lon="-4.049410705215822"><ele>241.00000000000003</ele><time>2026-04-19T13:16:45.999Z</time></trkpt><trkpt lat="48.357747815011855" lon="-4.049277852843217"><ele>241.0</ele><time>2026-04-19T13:16:46.999Z</time></trkpt><trkpt lat="48.357751426093635" lon="-4.049147673924745"><ele>241.0</ele><time>2026-04-19T13:16:47.999Z</time></trkpt><trkpt lat="48.35775710306297" lon="-4.049004244681126"><ele>239.99999999999997</ele><time>2026-04-19T13:16:48.999Z</time></trkpt><trkpt lat="48.35776505207009" lon="-4.048864923681013"><ele>239.0</ele><time>2026-04-19T13:16:49.999Z</time></trkpt><trkpt lat="48.35777104821545" lon="-4.048720335522515"><ele>238.0</ele><time>2026-04-19T13:16:50.999Z</time></trkpt><trkpt lat="48.35777867645328" lon="-4.048588515750334"><ele>237.0</ele><time>2026-04-19T13:16:52Z</time></trkpt><trkpt lat="48.35778692792248" lon="-4.048482768242041"><ele>235.99999999999997</ele><time>2026-04-19T13:16:53Z</time></trkpt><trkpt lat="48.357788769889" lon="-4.048362592555666"><ele>235.0</ele><time>2026-04-19T13:16:54Z</time></trkpt><trkpt lat="48.3577928037456" lon="-4.0482606452003145"><ele>234.6</ele><time>2026-04-19T13:16:55Z</time></trkpt><trkpt lat="48.357805828397204" lon="-4.04811058596832"><ele>234.2</ele><time>2026-04-19T13:16:57Z</time></trkpt><trkpt lat="48.3578072350465" lon="-4.047990861545421"><ele>233.8</ele><time>2026-04-19T13:17:00Z</time></trkpt><trkpt lat="48.35780521861262" lon="-4.047817029492208"><ele>233.4</ele><time>2026-04-19T13:17:05Z</time></trkpt><trkpt lat="48.35781262494986" lon="-4.047650695593146"><ele>233.0</ele><time>2026-04-19T13:17:06Z</time></trkpt><trkpt lat="48.35781905550973" lon="-4.047506275979812"><ele>232.8</ele><time>2026-04-19T13:17:07Z</time></trkpt><trkpt lat="48.357825693872165" lon="-4.047356008070537"><ele>232.60000000000002</ele><time>2026-04-19T13:17:08Z</time></trkpt><trkpt lat="48.35783256809836" lon="-4.0471879588326445"><ele>232.39999999999998</ele><time>2026-04-19T13:17:09Z</time></trkpt><trkpt lat="48.35783881871673" lon="-4.047035154457887"><ele>232.2</ele><time>2026-04-19T13:17:10Z</time></trkpt><trkpt lat="48.357844589158034" lon="-4.0468940886738425"><ele>232.0</ele><time>2026-04-19T13:17:11Z</time></trkpt><trkpt lat="48.35785077034857" lon="-4.046742981506673"><ele>231.8</ele><time>2026-04-19T13:17:12Z</time></trkpt><trkpt lat="48.35785738134289" lon="-4.046581367330377"><ele>231.6</ele><time>2026-04-19T13:17:13Z</time></trkpt><trkpt lat="48.3578629495064" lon="-4.046448876057378"><ele>231.40000000000003</ele><time>2026-04-19T13:17:14Z</time></trkpt><trkpt lat="48.35787055308337" lon="-4.046284096275274"><ele>231.20000000000002</ele><time>2026-04-19T13:17:16Z</time></trkpt><trkpt lat="48.35787838344362" lon="-4.046114401411087"><ele>231.0</ele><time>2026-04-19T13:17:18Z</time></trkpt><trkpt lat="48.35788330711797" lon="-4.046007698506942"><ele>231.0</ele><time>2026-04-19T13:17:37.999Z</time></trkpt><trkpt lat="48.35788985841679" lon="-4.045841544244342"><ele>231.00000000000003</ele><time>2026-04-19T13:17:39.999Z</time></trkpt><trkpt lat="48.35789441251843" lon="-4.045648280212856"><ele>231.00000000000003</ele><time>2026-04-19T13:17:41.999Z</time></trkpt><trkpt lat="48.35789664779468" lon="-4.045498564289955"><ele>231.0</ele><time>2026-04-19T13:17:42.999Z</time></trkpt><trkpt lat="48.357891186142936" lon="-4.045356340780077"><ele>231.0</ele><time>2026-04-19T13:17:43.999Z</time></trkpt><trkpt lat="48.357881156870256" lon="-4.045205938358384"><ele>230.75</ele><time>2026-04-19T13:17:44.999Z</time></trkpt><trkpt lat="48.357878501443864" lon="-4.045052010102333"><ele>230.5</ele><time>2026-04-19T13:17:45.999Z</time></trkpt><trkpt lat="48.35787700028843" lon="-4.044924690378287"><ele>230.25</ele><time>2026-04-19T13:17:46.999Z</time></trkpt><trkpt lat="48.357887001645445" lon="-4.044757566664745"><ele>230.0</ele><time>2026-04-19T13:17:48.999Z</time></trkpt><trkpt lat="48.35847988520031" lon="-4.044445566794363"><ele>231.4</ele><time>2026-04-19T13:17:49.999Z</time></trkpt><trkpt lat="48.35853155123377" lon="-4.044276430565934"><ele>232.8</ele><time>2026-04-19T13:17:51.999Z</time></trkpt><trkpt lat="48.35856502988353" lon="-4.044158130239238"><ele>234.2</ele><time>2026-04-19T13:17:52.999Z</time></trkpt><trkpt lat="48.35861929785639" lon="-4.044014881052962"><ele>235.6</ele><time>2026-04-19T13:17:53.999Z</time></trkpt><trkpt lat="48.3586597213653" lon="-4.043915736198406"><ele>237.0</ele><time>2026-04-19T13:17:54.999Z</time></trkpt><trkpt lat="48.358714131857084" lon="-4.043762093221859"><ele>237.0</ele><time>2026-04-19T13:17:56.999Z</time></trkpt><trkpt lat="48.358750488636026" lon="-4.043677207258965"><ele>237.0</ele><time>2026-04-19T13:17:57.999Z</time></trkpt><trkpt lat="48.35879192440941" lon="-4.0435728111768725"><ele>237.0</ele><time>2026-04-19T13:17:58.999Z</time></trkpt><trkpt lat="48.358815393186525" lon="-4.0434412054619635"><ele>237.0</ele><time>2026-04-19T13:17:59.999Z</time></trkpt><trkpt lat="48.358845291521085" lon="-4.04332463750405"><ele>237.0</ele><time>2026-04-19T13:18:00.999Z</time></trkpt><trkpt lat="48.35886843055858" lon="-4.04318718672946"><ele>237.0</ele><time>2026-04-19T13:18:01.999Z</time></trkpt><trkpt lat="48.35888972490513" lon="-4.043046191448862"><ele>238.8</ele><time>2026-04-19T13:18:02.999Z</time></trkpt><trkpt lat="48.35892691782735" lon="-4.042888593049361"><ele>240.6</ele><time>2026-04-19T13:18:03.999Z</time></trkpt><trkpt lat="48.35895657213439" lon="-4.04273698838425"><ele>242.40000000000003</ele><time>2026-04-19T13:18:04.999Z</time></trkpt><trkpt lat="48.35899559777188" lon="-4.042579236386625"><ele>244.20000000000002</ele><time>2026-04-19T13:18:05.999Z</time></trkpt><trkpt lat="48.35903781303682" lon="-4.042476210618528"><ele>246.0</ele><time>2026-04-19T13:18:06.999Z</time></trkpt><trkpt lat="48.359068116182996" lon="-4.042364441339932"><ele>246.0</ele><time>2026-04-19T13:18:07.999Z</time></trkpt><trkpt lat="48.359085229395205" lon="-4.042239124903665"><ele>246.00000000000003</ele><time>2026-04-19T13:18:08.999Z</time></trkpt><trkpt lat="48.35911395446371" lon="-4.0420934902284875"><ele>246.00000000000003</ele><time>2026-04-19T13:18:09.999Z</time></trkpt><trkpt lat="48.35914116288346" lon="-4.0419620259541365"><ele>246.0</ele><time>2026-04-19T13:18:10.999Z</time></trkpt><trkpt lat="48.35915764554929" lon="-4.0418531799535415"><ele>246.0</ele><time>2026-04-19T13:18:11.999Z</time></trkpt><trkpt lat="48.359178008779836" lon="-4.041691687692608"><ele>246.25</ele><time>2026-04-19T13:18:12.999Z</time></trkpt><trkpt lat="48.35920310632386" lon="-4.041499622832911"><ele>246.5</ele><time>2026-04-19T13:18:13.999Z</time></trkpt><trkpt lat="48.35920681485437" lon="-4.04131574200902"><ele>246.75</ele><time>2026-04-19T13:18:14.999Z</time></trkpt><trkpt lat="48.35922213916752" lon="-4.0410955284834875"><ele>247.0</ele><time>2026-04-19T13:18:15.999Z</time></trkpt><trkpt lat="48.359246891317085" lon="-4.040873251928381"><ele>247.0</ele><time>2026-04-19T13:18:16.999Z</time></trkpt><trkpt lat="48.35926605437422" lon="-4.0406590713795625"><ele>247.0</ele><time>2026-04-19T13:18:17.999Z</time></trkpt><trkpt lat="48.35928371921853" lon="-4.040457893159957"><ele>247.0</ele><time>2026-04-19T13:18:18.999Z</time></trkpt><trkpt lat="48.359303393095324" lon="-4.040273248663295"><ele>247.0</ele><time>2026-04-19T13:18:19.999Z</time></trkpt><trkpt lat="48.35931932577327" lon="-4.040065698423241"><ele>247.2</ele><time>2026-04-19T13:18:20.999Z</time></trkpt><trkpt lat="48.35932919700183" lon="-4.0398996267372524"><ele>247.39999999999998</ele><time>2026-04-19T13:18:21.999Z</time></trkpt><trkpt lat="48.359327279417236" lon="-4.039722679836283"><ele>247.60000000000002</ele><time>2026-04-19T13:18:22.999Z</time></trkpt><trkpt lat="48.35933350386523" lon="-4.039571428872279"><ele>247.8</ele><time>2026-04-19T13:18:23.999Z</time></trkpt><trkpt lat="48.359343951779245" lon="-4.039422599109087"><ele>248.0</ele><time>2026-04-19T13:18:24.999Z</time></trkpt><trkpt lat="48.359350369242584" lon="-4.039277275853038"><ele>248.0</ele><time>2026-04-19T13:18:25.999Z</time></trkpt><trkpt lat="48.35936535590666" lon="-4.039182034908152"><ele>248.0</ele><time>2026-04-19T13:18:26.999Z</time></trkpt><trkpt lat="48.35937831625021" lon="-4.039057384223639"><ele>248.0</ele><time>2026-04-19T13:18:27.999Z</time></trkpt><trkpt lat="48.359377019489315" lon="-4.038875378030626"><ele>248.0</ele><time>2026-04-19T13:18:29.999Z</time></trkpt><trkpt lat="48.35936527176401" lon="-4.038637248190229"><ele>248.0</ele><time>2026-04-19T13:18:31.999Z</time></trkpt><trkpt lat="48.35937319869261" lon="-4.038468757865299"><ele>247.5</ele><time>2026-04-19T13:18:32.999Z</time></trkpt><trkpt lat="48.359385909041436" lon="-4.0382737893471985"><ele>247.0</ele><time>2026-04-19T13:18:33.999Z</time></trkpt><trkpt lat="48.359385376469874" lon="-4.0381081883550545"><ele>246.5</ele><time>2026-04-19T13:18:34.999Z</time></trkpt><trkpt lat="48.3593611250874" lon="-4.037932087338863"><ele>246.0</ele><time>2026-04-19T13:18:35.999Z</time></trkpt><trkpt lat="48.359343818763705" lon="-4.037789097651033"><ele>246.0</ele><time>2026-04-19T13:18:36.999Z</time></trkpt><trkpt lat="48.35933333018074" lon="-4.037603114079923"><ele>246.00000000000003</ele><time>2026-04-19T13:18:37.999Z</time></trkpt><trkpt lat="48.35932516074845" lon="-4.0374686134182305"><ele>246.00000000000003</ele><time>2026-04-19T13:18:38.999Z</time></trkpt><trkpt lat="48.3593220076169" lon="-4.037324487120277"><ele>246.0</ele><time>2026-04-19T13:18:39.999Z</time></trkpt><trkpt lat="48.35932386254054" lon="-4.03715970332489"><ele>246.0</ele><time>2026-04-19T13:18:40.999Z</time></trkpt><trkpt lat="48.35931585647562" lon="-4.037009978853392"><ele>245.66666666666666</ele><time>2026-04-19T13:18:41.999Z</time></trkpt><trkpt lat="48.35930293480158" lon="-4.0368987939415675"><ele>245.33333333333331</ele><time>2026-04-19T13:18:42.999Z</time></trkpt><trkpt lat="48.359294576724224" lon="-4.036780748875675"><ele>245.0</ele><time>2026-04-19T13:18:43.999Z</time></trkpt><trkpt lat="48.35928572667324" lon="-4.036671893253574"><ele>244.66666666666666</ele><time>2026-04-19T13:18:44.999Z</time></trkpt><trkpt lat="48.35927455641742" lon="-4.036535746358013"><ele>244.33333333333331</ele><time>2026-04-19T13:18:45.999Z</time></trkpt><trkpt lat="48.35926620278742" lon="-4.036433100085211"><ele>244.0</ele><time>2026-04-19T13:18:46.999Z</time></trkpt><trkpt lat="48.359292131568544" lon="-4.036313794979743"><ele>243.75</ele><time>2026-04-19T13:18:47.999Z</time></trkpt><trkpt lat="48.35934523769656" lon="-4.036141232472236"><ele>243.5</ele><time>2026-04-19T13:18:48.999Z</time></trkpt><trkpt lat="48.3593942674314" lon="-4.035956792352751"><ele>243.25</ele><time>2026-04-19T13:18:49.999Z</time></trkpt><trkpt lat="48.35944129960584" lon="-4.035790837018187"><ele>243.0</ele><time>2026-04-19T13:18:50.999Z</time></trkpt><trkpt lat="48.359472015170695" lon="-4.035675493624003"><ele>242.16666666666666</ele><time>2026-04-19T13:18:51.999Z</time></trkpt><trkpt lat="48.359509138909445" lon="-4.035576518169107"><ele>241.33333333333331</ele><time>2026-04-19T13:18:53Z</time></trkpt><trkpt lat="48.35953406082391" lon="-4.035469713191193"><ele>240.5</ele><time>2026-04-19T13:18:54Z</time></trkpt><trkpt lat="48.35956534953069" lon="-4.03535306256785"><ele>239.66666666666666</ele><time>2026-04-19T13:18:55Z</time></trkpt><trkpt lat="48.359622976219704" lon="-4.035171436010106"><ele>238.83333333333331</ele><time>2026-04-19T13:18:57Z</time></trkpt><trkpt lat="48.35965239330568" lon="-4.035060032900494"><ele>238.0</ele><time>2026-04-19T13:18:58Z</time></trkpt><trkpt lat="48.35967302897644" lon="-4.034953027358005"><ele>238.49999999999997</ele><time>2026-04-19T13:18:59Z</time></trkpt><trkpt lat="48.359700414408316" lon="-4.03484721070853"><ele>239.0</ele><time>2026-04-19T13:19:00Z</time></trkpt><trkpt lat="48.359729021105395" lon="-4.034732066667726"><ele>239.5</ele><time>2026-04-19T13:19:01Z</time></trkpt><trkpt lat="48.35975483537955" lon="-4.034642232286882"><ele>240.0</ele><time>2026-04-19T13:19:02Z</time></trkpt><trkpt lat="48.359782961074536" lon="-4.034554506696705"><ele>240.49999999999997</ele><time>2026-04-19T13:19:03Z</time></trkpt><trkpt lat="48.359835587734004" lon="-4.034365165051552"><ele>241.0</ele><time>2026-04-19T13:19:05Z</time></trkpt><trkpt lat="48.35988152664765" lon="-4.034215181881101"><ele>239.5</ele><time>2026-04-19T13:19:06Z</time></trkpt><trkpt lat="48.359936765696524" lon="-4.034037123462237"><ele>238.0</ele><time>2026-04-19T13:19:07Z</time></trkpt><trkpt lat="48.36000372931692" lon="-4.0338468936547"><ele>236.5</ele><time>2026-04-19T13:19:08Z</time></trkpt><trkpt lat="48.360075754145555" lon="-4.033663668011004"><ele>235.0</ele><time>2026-04-19T13:19:09Z</time></trkpt><trkpt lat="48.36012438324341" lon="-4.033502843730871"><ele>235.0</ele><time>2026-04-19T13:19:10Z</time></trkpt><trkpt lat="48.36014777573481" lon="-4.033377037907969"><ele>235.0</ele><time>2026-04-19T13:19:11Z</time></trkpt><trkpt lat="48.360187012160914" lon="-4.033209378846986"><ele>235.0</ele><time>2026-04-19T13:19:12Z</time></trkpt><trkpt lat="48.36026557349023" lon="-4.032982930833455"><ele>235.0</ele><time>2026-04-19T13:19:13Z</time></trkpt><trkpt lat="48.36035268618403" lon="-4.032721974480956"><ele>235.75</ele><time>2026-04-19T13:19:14Z</time></trkpt><trkpt lat="48.36040187103716" lon="-4.032523258356554"><ele>236.5</ele><time>2026-04-19T13:19:15Z</time></trkpt><trkpt lat="48.360450446175996" lon="-4.03233866867155"><ele>237.25</ele><time>2026-04-19T13:19:16Z</time></trkpt><trkpt lat="48.36049073893823" lon="-4.032159550839539"><ele>238.0</ele><time>2026-04-19T13:19:17Z</time></trkpt><trkpt lat="48.36054497129259" lon="-4.032019846237619"><ele>238.0</ele><time>2026-04-19T13:19:18Z</time></trkpt><trkpt lat="48.36059610108533" lon="-4.03187658465503"><ele>238.0</ele><time>2026-04-19T13:19:19Z</time></trkpt><trkpt lat="48.36062249496762" lon="-4.0317152697923575"><ele>238.0</ele><time>2026-04-19T13:19:20Z</time></trkpt><trkpt lat="48.36063634844785" lon="-4.031564860589684"><ele>238.0</ele><time>2026-04-19T13:19:21Z</time></trkpt><trkpt lat="48.36065732379734" lon="-4.0314258251885065"><ele>238.0</ele><time>2026-04-19T13:19:22Z</time></trkpt><trkpt lat="48.360692340247375" lon="-4.031291679044562"><ele>237.4</ele><time>2026-04-19T13:19:23Z</time></trkpt><trkpt lat="48.36072018266473" lon="-4.031152111610097"><ele>236.8</ele><time>2026-04-19T13:19:24Z</time></trkpt><trkpt lat="48.36076025386627" lon="-4.030999285810718"><ele>236.2</ele><time>2026-04-19T13:19:25Z</time></trkpt><trkpt lat="48.36079411070099" lon="-4.03085980518477"><ele>235.6</ele><time>2026-04-19T13:19:26Z</time></trkpt><trkpt lat="48.360824379019455" lon="-4.03071128251083"><ele>235.0</ele><time>2026-04-19T13:19:28Z</time></trkpt><trkpt lat="48.36086156170954" lon="-4.0305795466318575"><ele>234.6</ele><time>2026-04-19T13:19:30Z</time></trkpt><trkpt lat="48.36090039774315" lon="-4.030420740847941"><ele>234.2</ele><time>2026-04-19T13:19:32Z</time></trkpt><trkpt lat="48.36093188351012" lon="-4.030252187941178"><ele>233.8</ele><time>2026-04-19T13:19:34Z</time></trkpt><trkpt lat="48.360952389629695" lon="-4.030125052246553"><ele>233.4</ele><time>2026-04-19T13:19:35Z</time></trkpt><trkpt lat="48.360987154525674" lon="-4.029948112522833"><ele>233.0</ele><time>2026-04-19T13:19:36Z</time></trkpt><trkpt lat="48.361021736413285" lon="-4.029772957881226"><ele>232.5</ele><time>2026-04-19T13:19:37Z</time></trkpt><trkpt lat="48.36106236961888" lon="-4.029607625108776"><ele>232.0</ele><time>2026-04-19T13:19:38Z</time></trkpt><trkpt lat="48.36110462732615" lon="-4.029444429467507"><ele>231.5</ele><time>2026-04-19T13:19:39Z</time></trkpt><trkpt lat="48.3611379522462" lon="-4.029277916507348"><ele>231.0</ele><time>2026-04-19T13:19:40Z</time></trkpt><trkpt lat="48.36116714838029" lon="-4.029119434664066"><ele>230.5</ele><time>2026-04-19T13:19:41Z</time></trkpt><trkpt lat="48.361193849422776" lon="-4.0289636687455115"><ele>230.0</ele><time>2026-04-19T13:19:42Z</time></trkpt><trkpt lat="48.36122697760777" lon="-4.028777892513239"><ele>229.5</ele><time>2026-04-19T13:19:43Z</time></trkpt><trkpt lat="48.36126253519696" lon="-4.028600760043937"><ele>229.0</ele><time>2026-04-19T13:19:44Z</time></trkpt><trkpt lat="48.361284017008266" lon="-4.028445816494864"><ele>228.99999999999997</ele><time>2026-04-19T13:19:45Z</time></trkpt><trkpt lat="48.36130228851488" lon="-4.028340171427906"><ele>229.0</ele><time>2026-04-19T13:19:46Z</time></trkpt><trkpt lat="48.36131939751277" lon="-4.028220222076169"><ele>229.0</ele><time>2026-04-19T13:19:47Z</time></trkpt><trkpt lat="48.361336479175854" lon="-4.028084111504276"><ele>229.0</ele><time>2026-04-19T13:19:48Z</time></trkpt><trkpt lat="48.3613514546357" lon="-4.027956502581167"><ele>228.99999999999997</ele><time>2026-04-19T13:19:50Z</time></trkpt><trkpt lat="48.36136272495216" lon="-4.027861191894671"><ele>229.0</ele><time>2026-04-19T13:19:51Z</time></trkpt><trkpt lat="48.361374135427816" lon="-4.027758569006706"><ele>231.2</ele><time>2026-04-19T13:19:52Z</time></trkpt><trkpt lat="48.36138278973408" lon="-4.027639799887968"><ele>233.39999999999998</ele><time>2026-04-19T13:19:53Z</time></trkpt><trkpt lat="48.361382777272375" lon="-4.027508711997266"><ele>235.6</ele><time>2026-04-19T13:19:54Z</time></trkpt><trkpt lat="48.36138403343421" lon="-4.0273585504046086"><ele>237.8</ele><time>2026-04-19T13:19:55Z</time></trkpt><trkpt lat="48.3613874106317" lon="-4.02722819219798"><ele>240.0</ele><time>2026-04-19T13:19:56Z</time></trkpt><trkpt lat="48.361396035412355" lon="-4.027079440632763"><ele>240.0</ele><time>2026-04-19T13:19:57Z</time></trkpt><trkpt lat="48.361419112718586" lon="-4.026969835386972"><ele>240.0</ele><time>2026-04-19T13:19:58Z</time></trkpt><trkpt lat="48.361436341675166" lon="-4.026876307864423"><ele>240.0</ele><time>2026-04-19T13:19:59Z</time></trkpt><trkpt lat="48.36144352856562" lon="-4.026772587849854"><ele>240.0</ele><time>2026-04-19T13:20:00Z</time></trkpt><trkpt lat="48.36145810098947" lon="-4.026670663129788"><ele>240.0</ele><time>2026-04-19T13:20:01Z</time></trkpt><trkpt lat="48.36147504728448" lon="-4.026571754814221"><ele>240.0</ele><time>2026-04-19T13:20:02Z</time></trkpt><trkpt lat="48.361498586973426" lon="-4.026468010041546"><ele>240.0</ele><time>2026-04-19T13:20:03Z</time></trkpt><trkpt lat="48.36151285345784" lon="-4.026329497754632"><ele>239.4</ele><time>2026-04-19T13:20:04Z</time></trkpt><trkpt lat="48.36153410147524" lon="-4.026156996376353"><ele>238.8</ele><time>2026-04-19T13:20:05Z</time></trkpt><trkpt lat="48.36156338351758" lon="-4.025992709116466"><ele>238.2</ele><time>2026-04-19T13:20:06Z</time></trkpt><trkpt lat="48.36158045043046" lon="-4.025865424615034"><ele>237.6</ele><time>2026-04-19T13:20:07Z</time></trkpt><trkpt lat="48.36159374391983" lon="-4.025771313699835"><ele>237.0</ele><time>2026-04-19T13:20:08Z</time></trkpt><trkpt lat="48.361625799526784" lon="-4.025555141971334"><ele>236.83333333333334</ele><time>2026-04-19T13:20:10Z</time></trkpt><trkpt lat="48.36164953027691" lon="-4.025428450777639"><ele>236.66666666666669</ele><time>2026-04-19T13:20:11Z</time></trkpt><trkpt lat="48.36167669409447" lon="-4.025282602097878"><ele>236.5</ele><time>2026-04-19T13:20:12Z</time></trkpt><trkpt lat="48.3616982352362" lon="-4.025136254156288"><ele>236.33333333333334</ele><time>2026-04-19T13:20:13Z</time></trkpt><trkpt lat="48.36170593260162" lon="-4.025012195245751"><ele>236.16666666666669</ele><time>2026-04-19T13:20:14Z</time></trkpt><trkpt lat="48.36171660636306" lon="-4.0248997311846635"><ele>236.0</ele><time>2026-04-19T13:20:15Z</time></trkpt><trkpt lat="48.36173912894945" lon="-4.024773947567555"><ele>235.8</ele><time>2026-04-19T13:20:16Z</time></trkpt><trkpt lat="48.36175393834775" lon="-4.024619392169641"><ele>235.60000000000002</ele><time>2026-04-19T13:20:17Z</time></trkpt><trkpt lat="48.361745010556994" lon="-4.024485790513667"><ele>235.4</ele><time>2026-04-19T13:20:18Z</time></trkpt><trkpt lat="48.361728849474225" lon="-4.024352337653355"><ele>235.2</ele><time>2026-04-19T13:20:19Z</time></trkpt><trkpt lat="48.36172779889942" lon="-4.024210159977975"><ele>235.0</ele><time>2026-04-19T13:20:20Z</time></trkpt><trkpt lat="48.361729818388156" lon="-4.024065392828801"><ele>234.99999999999997</ele><time>2026-04-19T13:20:21Z</time></trkpt><trkpt lat="48.36173712906775" lon="-4.023968081642924"><ele>235.0</ele><time>2026-04-19T13:20:22Z</time></trkpt><trkpt lat="48.361749172634774" lon="-4.023865905683418"><ele>235.0</ele><time>2026-04-19T13:20:23Z</time></trkpt><trkpt lat="48.36175859004346" lon="-4.023760276050386"><ele>235.0</ele><time>2026-04-19T13:20:24Z</time></trkpt><trkpt lat="48.36177386514591" lon="-4.02365380455012"><ele>234.99999999999997</ele><time>2026-04-19T13:20:25Z</time></trkpt><trkpt lat="48.36179678708983" lon="-4.023507288580428"><ele>235.0</ele><time>2026-04-19T13:20:26Z</time></trkpt><trkpt lat="48.361818561876696" lon="-4.023315197011528"><ele>235.0</ele><time>2026-04-19T13:20:27Z</time></trkpt><trkpt lat="48.36183139914089" lon="-4.023164876079016"><ele>235.0</ele><time>2026-04-19T13:20:27.999Z</time></trkpt><trkpt lat="48.3618382834976" lon="-4.023029525859557"><ele>235.0</ele><time>2026-04-19T13:20:28.999Z</time></trkpt><trkpt lat="48.36184096669022" lon="-4.02288937513119"><ele>235.0</ele><time>2026-04-19T13:20:29.999Z</time></trkpt><trkpt lat="48.361853935059415" lon="-4.02273680236171"><ele>235.0</ele><time>2026-04-19T13:20:30.999Z</time></trkpt><trkpt lat="48.36188132063283" lon="-4.022570978009064"><ele>234.33333333333331</ele><time>2026-04-19T13:20:31.999Z</time></trkpt><trkpt lat="48.36190854370111" lon="-4.022414940917719"><ele>233.66666666666666</ele><time>2026-04-19T13:20:32.999Z</time></trkpt><trkpt lat="48.36192254471026" lon="-4.022319701980298"><ele>233.0</ele><time>2026-04-19T13:20:33.999Z</time></trkpt><trkpt lat="48.36194680218036" lon="-4.022212288364138"><ele>232.33333333333331</ele><time>2026-04-19T13:20:34.999Z</time></trkpt><trkpt lat="48.36197366571531" lon="-4.02210202076491"><ele>231.66666666666666</ele><time>2026-04-19T13:20:35.999Z</time></trkpt><trkpt lat="48.36199787840728" lon="-4.021992633702277"><ele>231.0</ele><time>2026-04-19T13:20:36.999Z</time></trkpt><trkpt lat="48.36201523079697" lon="-4.021880489916141"><ele>231.0</ele><time>2026-04-19T13:20:37.999Z</time></trkpt><trkpt lat="48.36202838154" lon="-4.021742787640504"><ele>231.00000000000003</ele><time>2026-04-19T13:20:38.999Z</time></trkpt><trkpt lat="48.36206566955294" lon="-4.0216063382722655"><ele>231.00000000000003</ele><time>2026-04-19T13:20:39.999Z</time></trkpt><trkpt lat="48.362120922414924" lon="-4.021463416231989"><ele>231.0</ele><time>2026-04-19T13:20:40.999Z</time></trkpt><trkpt lat="48.36217597094808" lon="-4.021267766610853"><ele>231.0</ele><time>2026-04-19T13:20:41.999Z</time></trkpt><trkpt lat="48.362230297764626" lon="-4.021090265110802"><ele>231.25</ele><time>2026-04-19T13:20:42.999Z</time></trkpt><trkpt lat="48.36227356146786" lon="-4.020865682000959"><ele>231.5</ele><time>2026-04-19T13:20:43.999Z</time></trkpt><trkpt lat="48.36232032633905" lon="-4.020668770282768"><ele>231.75</ele><time>2026-04-19T13:20:44.999Z</time></trkpt><trkpt lat="48.362366544713005" lon="-4.020470834484671"><ele>232.0</ele><time>2026-04-19T13:20:45.999Z</time></trkpt><trkpt lat="48.362408173300835" lon="-4.020292084258017"><ele>232.0</ele><time>2026-04-19T13:20:46.999Z</time></trkpt><trkpt lat="48.36245074573489" lon="-4.020108720353285"><ele>232.0</ele><time>2026-04-19T13:20:47.999Z</time></trkpt><trkpt lat="48.362497213917685" lon="-4.019911145912686"><ele>232.0</ele><time>2026-04-19T13:20:48.999Z</time></trkpt><trkpt lat="48.36254145616405" lon="-4.019725231951734"><ele>232.0</ele><time>2026-04-19T13:20:50Z</time></trkpt><trkpt lat="48.36259425509473" lon="-4.019503384207541"><ele>230.66666666666666</ele><time>2026-04-19T13:20:51Z</time></trkpt><trkpt lat="48.362650646561946" lon="-4.0192665449493346"><ele>229.33333333333331</ele><time>2026-04-19T13:20:52Z</time></trkpt><trkpt lat="48.362728266663304" lon="-4.019009807993339"><ele>228.0</ele><time>2026-04-19T13:20:53Z</time></trkpt><trkpt lat="48.3627824994913" lon="-4.018777798631285"><ele>227.0</ele><time>2026-04-19T13:20:54Z</time></trkpt><trkpt lat="48.362822113275605" lon="-4.018564687169704"><ele>226.0</ele><time>2026-04-19T13:20:55Z</time></trkpt><trkpt lat="48.36286459250993" lon="-4.018394812843126"><ele>225.0</ele><time>2026-04-19T13:20:56Z</time></trkpt><trkpt lat="48.36290166211016" lon="-4.018246571630222"><ele>224.0</ele><time>2026-04-19T13:20:57Z</time></trkpt><trkpt lat="48.36294388370036" lon="-4.01808414666837"><ele>223.5</ele><time>2026-04-19T13:20:58Z</time></trkpt><trkpt lat="48.36298907279274" lon="-4.017931336606206"><ele>223.0</ele><time>2026-04-19T13:20:59Z</time></trkpt><trkpt lat="48.36304817524832" lon="-4.0177678658070635"><ele>222.5</ele><time>2026-04-19T13:21:00Z</time></trkpt><trkpt lat="48.363126907520076" lon="-4.017595777643694"><ele>222.0</ele><time>2026-04-19T13:21:01Z</time></trkpt><trkpt lat="48.36322803657112" lon="-4.017412602647505"><ele>224.75</ele><time>2026-04-19T13:21:02Z</time></trkpt><trkpt lat="48.36332181908152" lon="-4.017237811142258"><ele>227.5</ele><time>2026-04-19T13:21:03Z</time></trkpt><trkpt lat="48.363366412900575" lon="-4.017076462614541"><ele>230.25</ele><time>2026-04-19T13:21:04Z</time></trkpt><trkpt lat="48.36339898311733" lon="-4.016921778018177"><ele>233.0</ele><time>2026-04-19T13:21:05Z</time></trkpt><trkpt lat="48.36344701854236" lon="-4.016737230629516"><ele>232.75</ele><time>2026-04-19T13:21:06Z</time></trkpt><trkpt lat="48.36346943485544" lon="-4.016531405752588"><ele>232.5</ele><time>2026-04-19T13:21:07Z</time></trkpt><trkpt lat="48.36349543287365" lon="-4.016308257522172"><ele>232.25</ele><time>2026-04-19T13:21:08Z</time></trkpt><trkpt lat="48.36353384765385" lon="-4.01611296320579"><ele>232.0</ele><time>2026-04-19T13:21:09Z</time></trkpt><trkpt lat="48.36355909880402" lon="-4.015934334648107"><ele>231.8</ele><time>2026-04-19T13:21:10Z</time></trkpt><trkpt lat="48.36358278280284" lon="-4.015785635562409"><ele>231.6</ele><time>2026-04-19T13:21:11Z</time></trkpt><trkpt lat="48.36360506889515" lon="-4.015645713207899"><ele>231.40000000000003</ele><time>2026-04-19T13:21:12Z</time></trkpt><trkpt lat="48.36366381727687" lon="-4.0154790635709405"><ele>231.20000000000002</ele><time>2026-04-19T13:21:13Z</time></trkpt><trkpt lat="48.363690586566456" lon="-4.015309691247274"><ele>231.0</ele><time>2026-04-19T13:21:14Z</time></trkpt><trkpt lat="48.36371860004403" lon="-4.015154322099403"><ele>230.8</ele><time>2026-04-19T13:21:15Z</time></trkpt><trkpt lat="48.36376692314733" lon="-4.014982237229865"><ele>230.60000000000002</ele><time>2026-04-19T13:21:16Z</time></trkpt><trkpt lat="48.36380940513891" lon="-4.014835604049941"><ele>230.4</ele><time>2026-04-19T13:21:17Z</time></trkpt><trkpt lat="48.36381734820412" lon="-4.014700067764213"><ele>230.2</ele><time>2026-04-19T13:21:18Z</time></trkpt><trkpt lat="48.36384890599276" lon="-4.014515389017186"><ele>230.0</ele><time>2026-04-19T13:21:19Z</time></trkpt><trkpt lat="48.363884818842365" lon="-4.014333101411908"><ele>231.75</ele><time>2026-04-19T13:21:20Z</time></trkpt><trkpt lat="48.36392692956354" lon="-4.014155380500584"><ele>233.5</ele><time>2026-04-19T13:21:21Z</time></trkpt><trkpt lat="48.36396822230332" lon="-4.013978357038529"><ele>235.25</ele><time>2026-04-19T13:21:22Z</time></trkpt><trkpt lat="48.36401226935986" lon="-4.013793221253404"><ele>237.0</ele><time>2026-04-19T13:21:23Z</time></trkpt><trkpt lat="48.36404155445057" lon="-4.013639584306817"><ele>237.0</ele><time>2026-04-19T13:21:24Z</time></trkpt><trkpt lat="48.36406905417978" lon="-4.013505280764707"><ele>237.0</ele><time>2026-04-19T13:21:25Z</time></trkpt><trkpt lat="48.364099644758525" lon="-4.013378035471031"><ele>237.0</ele><time>2026-04-19T13:21:26Z</time></trkpt><trkpt lat="48.36412877065758" lon="-4.013238659645064"><ele>237.0</ele><time>2026-04-19T13:21:27Z</time></trkpt><trkpt lat="48.36413345491136" lon="-4.013092160317587"><ele>237.0</ele><time>2026-04-19T13:21:28Z</time></trkpt><trkpt lat="48.364153106488786" lon="-4.012918339777369"><ele>237.0</ele><time>2026-04-19T13:21:29Z</time></trkpt><trkpt lat="48.364184983934905" lon="-4.012733779942919"><ele>237.0</ele><time>2026-04-19T13:21:30Z</time></trkpt><trkpt lat="48.364219863538516" lon="-4.012540558081685"><ele>237.0</ele><time>2026-04-19T13:21:31Z</time></trkpt><trkpt lat="48.364253784398734" lon="-4.012325247247798"><ele>237.0</ele><time>2026-04-19T13:21:32Z</time></trkpt><trkpt lat="48.364289950682625" lon="-4.01212443140455"><ele>237.0</ele><time>2026-04-19T13:21:33Z</time></trkpt><trkpt lat="48.36432517564981" lon="-4.0119279003441415"><ele>237.0</ele><time>2026-04-19T13:21:34Z</time></trkpt><trkpt lat="48.36435866889006" lon="-4.011703873782125"><ele>237.0</ele><time>2026-04-19T13:21:35Z</time></trkpt><trkpt lat="48.364399714985765" lon="-4.011490033211861"><ele>237.0</ele><time>2026-04-19T13:21:36Z</time></trkpt><trkpt lat="48.364427607715946" lon="-4.011297288204785"><ele>237.25</ele><time>2026-04-19T13:21:37Z</time></trkpt><trkpt lat="48.36445535749786" lon="-4.011137386963693"><ele>237.5</ele><time>2026-04-19T13:21:38Z</time></trkpt><trkpt lat="48.36448936955329" lon="-4.010968219201177"><ele>237.75</ele><time>2026-04-19T13:21:39Z</time></trkpt><trkpt lat="48.364514981870855" lon="-4.0107770655322454"><ele>238.0</ele><time>2026-04-19T13:21:40Z</time></trkpt><trkpt lat="48.36454663261545" lon="-4.010609747382269"><ele>238.5</ele><time>2026-04-19T13:21:41Z</time></trkpt><trkpt lat="48.36457609422089" lon="-4.010447638034201"><ele>239.0</ele><time>2026-04-19T13:21:42Z</time></trkpt><trkpt lat="48.36460445530586" lon="-4.010255560959946"><ele>239.5</ele><time>2026-04-19T13:21:43Z</time></trkpt><trkpt lat="48.36463202751924" lon="-4.0100670708377315"><ele>240.0</ele><time>2026-04-19T13:21:44Z</time></trkpt><trkpt lat="48.36465530494585" lon="-4.009890648977956"><ele>240.4</ele><time>2026-04-19T13:21:45Z</time></trkpt><trkpt lat="48.36469467199856" lon="-4.009706870076931"><ele>240.8</ele><time>2026-04-19T13:21:46Z</time></trkpt><trkpt lat="48.36471746052599" lon="-4.009556406638924"><ele>241.2</ele><time>2026-04-19T13:21:47Z</time></trkpt><trkpt lat="48.36473772492954" lon="-4.009422608973296"><ele>241.6</ele><time>2026-04-19T13:21:48Z</time></trkpt><trkpt lat="48.3647541000903" lon="-4.0093144904227636"><ele>242.0</ele><time>2026-04-19T13:21:49Z</time></trkpt><trkpt lat="48.36476630754129" lon="-4.009176052750734"><ele>242.6</ele><time>2026-04-19T13:21:51Z</time></trkpt><trkpt lat="48.364733743772305" lon="-4.009090125679179"><ele>243.2</ele><time>2026-04-19T13:22:53Z</time></trkpt><trkpt lat="48.364607218745775" lon="-4.009098481683136"><ele>243.8</ele><time>2026-04-19T13:22:55Z</time></trkpt><trkpt lat="48.364522815359905" lon="-4.009120583965488"><ele>244.4</ele><time>2026-04-19T13:22:56Z</time></trkpt><trkpt lat="48.36441908094366" lon="-4.009131923165358"><ele>245.0</ele><time>2026-04-19T13:22:57Z</time></trkpt><trkpt lat="48.36431084313717" lon="-4.009117177598317"><ele>245.0</ele><time>2026-04-19T13:22:58Z</time></trkpt><trkpt lat="48.36420637723162" lon="-4.009093702883413"><ele>245.0</ele><time>2026-04-19T13:22:59Z</time></trkpt><trkpt lat="48.36410931383813" lon="-4.009075528205517"><ele>245.0</ele><time>2026-04-19T13:23:00Z</time></trkpt><trkpt lat="48.3640136162528" lon="-4.009072772148744"><ele>245.0</ele><time>2026-04-19T13:23:01Z</time></trkpt><trkpt lat="48.36392224193322" lon="-4.009062364857754"><ele>245.0</ele><time>2026-04-19T13:23:02Z</time></trkpt><trkpt lat="48.363835284519574" lon="-4.009132235371852"><ele>245.83333333333334</ele><time>2026-04-19T13:23:03Z</time></trkpt><trkpt lat="48.36374985900096" lon="-4.009129549297197"><ele>246.66666666666669</ele><time>2026-04-19T13:23:04Z</time></trkpt><trkpt lat="48.36368464119854" lon="-4.009128317161752"><ele>247.5</ele><time>2026-04-19T13:23:05Z</time></trkpt><trkpt lat="48.363603632726985" lon="-4.009126786693035"><ele>248.33333333333331</ele><time>2026-04-19T13:23:07Z</time></trkpt><trkpt lat="48.36353455894708" lon="-4.009109826370386"><ele>249.16666666666666</ele><time>2026-04-19T13:23:08Z</time></trkpt><trkpt lat="48.36345748494034" lon="-4.0090891113012335"><ele>250.0</ele><time>2026-04-19T13:23:09Z</time></trkpt><trkpt lat="48.36335401135012" lon="-4.009061300855263"><ele>250.0</ele><time>2026-04-19T13:23:10Z</time></trkpt><trkpt lat="48.36323605386222" lon="-4.00899709176349"><ele>250.0</ele><time>2026-04-19T13:23:11Z</time></trkpt><trkpt lat="48.363117152534905" lon="-4.008934128316375"><ele>250.0</ele><time>2026-04-19T13:23:12Z</time></trkpt><trkpt lat="48.362999289862756" lon="-4.0088377268499595"><ele>250.0</ele><time>2026-04-19T13:23:13Z</time></trkpt><trkpt lat="48.362860183645616" lon="-4.008696735338275"><ele>250.0</ele><time>2026-04-19T13:23:14Z</time></trkpt><trkpt lat="48.36272921272805" lon="-4.0085541246007965"><ele>250.0</ele><time>2026-04-19T13:23:15Z</time></trkpt><trkpt lat="48.36264638289362" lon="-4.008451739021914"><ele>250.0</ele><time>2026-04-19T13:23:16Z</time></trkpt><trkpt lat="48.36260067835704" lon="-4.008365912137528"><ele>250.0</ele><time>2026-04-19T13:23:17Z</time></trkpt><trkpt lat="48.362522195260105" lon="-4.008175332983212"><ele>250.4</ele><time>2026-04-19T13:23:19Z</time></trkpt><trkpt lat="48.36245210271357" lon="-4.008087854812327"><ele>250.8</ele><time>2026-04-19T13:23:20Z</time></trkpt><trkpt lat="48.362369797338424" lon="-4.008014791405621"><ele>251.2</ele><time>2026-04-19T13:23:21Z</time></trkpt><trkpt lat="48.36229996336218" lon="-4.007974282014182"><ele>251.6</ele><time>2026-04-19T13:23:22Z</time></trkpt><trkpt lat="48.36220605547554" lon="-4.00792922764164"><ele>252.0</ele><time>2026-04-19T13:23:23Z</time></trkpt><trkpt lat="48.36210799282765" lon="-4.007887922411626"><ele>251.0</ele><time>2026-04-19T13:23:24Z</time></trkpt><trkpt lat="48.36199335704196" lon="-4.0078235606359165"><ele>250.0</ele><time>2026-04-19T13:23:25Z</time></trkpt><trkpt lat="48.3618689948746" lon="-4.007768616078076"><ele>249.0</ele><time>2026-04-19T13:23:26Z</time></trkpt><trkpt lat="48.361748227225014" lon="-4.007710846754847"><ele>248.0</ele><time>2026-04-19T13:23:27Z</time></trkpt><trkpt lat="48.36165552595362" lon="-4.007674107263504"><ele>248.0</ele><time>2026-04-19T13:23:28Z</time></trkpt><trkpt lat="48.36156270303317" lon="-4.007663285432444"><ele>248.0</ele><time>2026-04-19T13:23:30Z</time></trkpt><trkpt lat="48.361503832298915" lon="-4.007731087136525"><ele>248.0</ele><time>2026-04-19T13:23:33Z</time></trkpt><trkpt lat="48.3614290267103" lon="-4.007803572418106"><ele>248.0</ele><time>2026-04-19T13:23:35Z</time></trkpt><trkpt lat="48.36134392964016" lon="-4.0078786617909605"><ele>248.0</ele><time>2026-04-19T13:23:37Z</time></trkpt><trkpt lat="48.36125000212688" lon="-4.007988619495223"><ele>248.33333333333334</ele><time>2026-04-19T13:23:39Z</time></trkpt><trkpt lat="48.36120286912322" lon="-4.008056662740982"><ele>248.66666666666669</ele><time>2026-04-19T13:23:40Z</time></trkpt><trkpt lat="48.361154962864134" lon="-4.008136898337142"><ele>249.0</ele><time>2026-04-19T13:23:41Z</time></trkpt><trkpt lat="48.361087261918016" lon="-4.0082353706980385"><ele>249.33333333333331</ele><time>2026-04-19T13:23:42Z</time></trkpt><trkpt lat="48.36100061537129" lon="-4.008342705169522"><ele>249.66666666666666</ele><time>2026-04-19T13:23:43Z</time></trkpt><trkpt lat="48.36091552328499" lon="-4.00842387936122"><ele>250.0</ele><time>2026-04-19T13:23:44Z</time></trkpt><trkpt lat="48.360824778044254" lon="-4.0084774620525385"><ele>250.2</ele><time>2026-04-19T13:23:45Z</time></trkpt><trkpt lat="48.36073035005904" lon="-4.008535817616441"><ele>250.4</ele><time>2026-04-19T13:23:46Z</time></trkpt><trkpt lat="48.36065342359057" lon="-4.008562539458586"><ele>250.60000000000002</ele><time>2026-04-19T13:23:47Z</time></trkpt><trkpt lat="48.36057483950512" lon="-4.008563566175897"><ele>250.8</ele><time>2026-04-19T13:23:48Z</time></trkpt><trkpt lat="48.36048275602911" lon="-4.008577044485633"><ele>251.0</ele><time>2026-04-19T13:23:49Z</time></trkpt><trkpt lat="48.36038401529629" lon="-4.008590857179002"><ele>251.0</ele><time>2026-04-19T13:23:50Z</time></trkpt><trkpt lat="48.36029471435343" lon="-4.008610170708109"><ele>251.00000000000003</ele><time>2026-04-19T13:23:51Z</time></trkpt><trkpt lat="48.360224334169544" lon="-4.008598300767033"><ele>251.00000000000003</ele><time>2026-04-19T13:23:52Z</time></trkpt><trkpt lat="48.36014607638637" lon="-4.008554443639082"><ele>251.0</ele><time>2026-04-19T13:23:53Z</time></trkpt><trkpt lat="48.3600582993795" lon="-4.008478610325502"><ele>251.0</ele><time>2026-04-19T13:23:54Z</time></trkpt><trkpt lat="48.35994904268309" lon="-4.008411768319949"><ele>251.0</ele><time>2026-04-19T13:23:55Z</time></trkpt><trkpt lat="48.35983211228611" lon="-4.0083501259198"><ele>251.0</ele><time>2026-04-19T13:23:56Z</time></trkpt><trkpt lat="48.35969274052004" lon="-4.0082922597237625"><ele>251.0</ele><time>2026-04-19T13:23:57Z</time></trkpt><trkpt lat="48.35957536435043" lon="-4.008247655517512"><ele>251.0</ele><time>2026-04-19T13:23:58Z</time></trkpt><trkpt lat="48.3594846596088" lon="-4.00822966549937"><ele>249.8</ele><time>2026-04-19T13:23:59Z</time></trkpt><trkpt lat="48.35938986441287" lon="-4.00820444777251"><ele>248.60000000000002</ele><time>2026-04-19T13:24:00Z</time></trkpt><trkpt lat="48.359289048319276" lon="-4.0081552953767465"><ele>247.4</ele><time>2026-04-19T13:24:01Z</time></trkpt><trkpt lat="48.35917141292545" lon="-4.008107606720875"><ele>246.2</ele><time>2026-04-19T13:24:02Z</time></trkpt><trkpt lat="48.35907849431224" lon="-4.008065634053744"><ele>245.0</ele><time>2026-04-19T13:24:03Z</time></trkpt><trkpt lat="48.35900161712917" lon="-4.008025260757641"><ele>245.0</ele><time>2026-04-19T13:24:04Z</time></trkpt><trkpt lat="48.358926345029495" lon="-4.007987417764889"><ele>245.0</ele><time>2026-04-19T13:24:05Z</time></trkpt><trkpt lat="48.358825122696565" lon="-4.0079303273225335"><ele>245.0</ele><time>2026-04-19T13:24:07Z</time></trkpt><trkpt lat="48.35876911741184" lon="-4.007847771868505"><ele>245.0</ele><time>2026-04-19T13:24:08Z</time></trkpt><trkpt lat="48.35865719082685" lon="-4.007785364319133"><ele>245.0</ele><time>2026-04-19T13:24:09Z</time></trkpt><trkpt lat="48.358530733881175" lon="-4.007721325468775"><ele>245.0</ele><time>2026-04-19T13:24:10Z</time></trkpt><trkpt lat="48.358419308732266" lon="-4.007613315983624"><ele>245.0</ele><time>2026-04-19T13:24:11Z</time></trkpt><trkpt lat="48.35832608240263" lon="-4.007558498689985"><ele>245.0</ele><time>2026-04-19T13:24:12Z</time></trkpt><trkpt lat="48.35821879540593" lon="-4.007550427361494"><ele>245.0</ele><time>2026-04-19T13:24:13Z</time></trkpt><trkpt lat="48.35807062412884" lon="-4.007532628700706"><ele>243.66666666666669</ele><time>2026-04-19T13:24:14Z</time></trkpt><trkpt lat="48.35789569376922" lon="-4.007494345560406"><ele>242.33333333333331</ele><time>2026-04-19T13:24:15Z</time></trkpt><trkpt lat="48.35771107735941" lon="-4.007482187809134"><ele>241.0</ele><time>2026-04-19T13:24:16Z</time></trkpt><trkpt lat="48.357584233904745" lon="-4.0074749601358075"><ele>240.8</ele><time>2026-04-19T13:24:17Z</time></trkpt><trkpt lat="48.357489703044884" lon="-4.007454292081057"><ele>240.60000000000002</ele><time>2026-04-19T13:24:18Z</time></trkpt><trkpt lat="48.35741707589083" lon="-4.007405865081399"><ele>240.4</ele><time>2026-04-19T13:24:19Z</time></trkpt><trkpt lat="48.35733389323848" lon="-4.007343813676617"><ele>240.2</ele><time>2026-04-19T13:24:20Z</time></trkpt><trkpt lat="48.35723305191171" lon="-4.007323335851212"><ele>240.0</ele><time>2026-04-19T13:24:21Z</time></trkpt><trkpt lat="48.35710812581938" lon="-4.007312828984632"><ele>240.0</ele><time>2026-04-19T13:24:22Z</time></trkpt><trkpt lat="48.356972578191616" lon="-4.007317605033691"><ele>240.0</ele><time>2026-04-19T13:24:23Z</time></trkpt><trkpt lat="48.35684493079129" lon="-4.007285534793331"><ele>240.0</ele><time>2026-04-19T13:24:24Z</time></trkpt><trkpt lat="48.35674450311599" lon="-4.00723622538294"><ele>240.0</ele><time>2026-04-19T13:24:25Z</time></trkpt><trkpt lat="48.35665748253052" lon="-4.007174442244907"><ele>240.0</ele><time>2026-04-19T13:24:26Z</time></trkpt><trkpt lat="48.35657182843143" lon="-4.007179892544891"><ele>240.0</ele><time>2026-04-19T13:24:27Z</time></trkpt><trkpt lat="48.35657522215163" lon="-4.007047250865591"><ele>240.0</ele><time>2026-04-19T13:24:30Z</time></trkpt><trkpt lat="48.35660236562768" lon="-4.006915932633631"><ele>240.0</ele><time>2026-04-19T13:24:31Z</time></trkpt><trkpt lat="48.356597262762506" lon="-4.006761794474604"><ele>240.0</ele><time>2026-04-19T13:24:32Z</time></trkpt><trkpt lat="48.35649155036419" lon="-4.006674993569524"><ele>240.2</ele><time>2026-04-19T13:24:34Z</time></trkpt><trkpt lat="48.356388411352896" lon="-4.006635087223961"><ele>240.4</ele><time>2026-04-19T13:24:35Z</time></trkpt><trkpt lat="48.356281769695876" lon="-4.00658122849396"><ele>240.60000000000002</ele><time>2026-04-19T13:24:36Z</time></trkpt><trkpt lat="48.35618156520125" lon="-4.006548638326243"><ele>240.8</ele><time>2026-04-19T13:24:37Z</time></trkpt><trkpt lat="48.35608831532635" lon="-4.006520102117966"><ele>241.0</ele><time>2026-04-19T13:24:38Z</time></trkpt><trkpt lat="48.35598043777564" lon="-4.006488681044464"><ele>241.0</ele><time>2026-04-19T13:24:39Z</time></trkpt><trkpt lat="48.355867746407775" lon="-4.006445983456579"><ele>241.00000000000003</ele><time>2026-04-19T13:24:40Z</time></trkpt><trkpt lat="48.355764288681485" lon="-4.0064235882271335"><ele>241.00000000000003</ele><time>2026-04-19T13:24:41Z</time></trkpt><trkpt lat="48.35566800640894" lon="-4.0064208344298144"><ele>241.0</ele><time>2026-04-19T13:24:42Z</time></trkpt><trkpt lat="48.355554088078996" lon="-4.006442619004229"><ele>241.0</ele><time>2026-04-19T13:24:43Z</time></trkpt><trkpt lat="48.355430412552515" lon="-4.006475520975547"><ele>241.0</ele><time>2026-04-19T13:24:44Z</time></trkpt><trkpt lat="48.35534062305094" lon="-4.0065081812553744"><ele>241.00000000000003</ele><time>2026-04-19T13:24:45Z</time></trkpt><trkpt lat="48.355247312544485" lon="-4.006537679416647"><ele>241.00000000000003</ele><time>2026-04-19T13:24:46Z</time></trkpt><trkpt lat="48.35513348242413" lon="-4.006582042738891"><ele>241.0</ele><time>2026-04-19T13:24:47Z</time></trkpt><trkpt lat="48.35502805750544" lon="-4.0066129062965885"><ele>241.0</ele><time>2026-04-19T13:24:48Z</time></trkpt><trkpt lat="48.354930979068946" lon="-4.006664001570486"><ele>240.20000000000002</ele><time>2026-04-19T13:24:49Z</time></trkpt><trkpt lat="48.35482121370699" lon="-4.0067152037363245"><ele>239.40000000000003</ele><time>2026-04-19T13:24:50Z</time></trkpt><trkpt lat="48.354719928752374" lon="-4.006765499172798"><ele>238.6</ele><time>2026-04-19T13:24:51Z</time></trkpt><trkpt lat="48.354611931152874" lon="-4.006826448307329"><ele>237.8</ele><time>2026-04-19T13:24:52Z</time></trkpt><trkpt lat="48.35450617170255" lon="-4.006862483572877"><ele>237.0</ele><time>2026-04-19T13:24:53Z</time></trkpt><trkpt lat="48.35436614077209" lon="-4.006922029942356"><ele>236.33333333333331</ele><time>2026-04-19T13:24:54Z</time></trkpt><trkpt lat="48.354214046738754" lon="-4.006951200145229"><ele>235.66666666666666</ele><time>2026-04-19T13:24:55Z</time></trkpt><trkpt lat="48.354056622059126" lon="-4.007003178410548"><ele>235.0</ele><time>2026-04-19T13:24:56Z</time></trkpt><trkpt lat="48.35391637678097" lon="-4.007069238882164"><ele>234.0</ele><time>2026-04-19T13:24:57Z</time></trkpt><trkpt lat="48.35379144258658" lon="-4.007117620683166"><ele>233.0</ele><time>2026-04-19T13:24:58Z</time></trkpt><trkpt lat="48.353665737160696" lon="-4.007139165078513"><ele>232.0</ele><time>2026-04-19T13:24:59Z</time></trkpt><trkpt lat="48.35353716226563" lon="-4.00716120036781"><ele>231.0</ele><time>2026-04-19T13:25:00Z</time></trkpt><trkpt lat="48.35344058590147" lon="-4.007154413275915"><ele>231.0</ele><time>2026-04-19T13:25:01Z</time></trkpt><trkpt lat="48.35335812052892" lon="-4.007155805334963"><ele>231.0</ele><time>2026-04-19T13:25:02Z</time></trkpt><trkpt lat="48.353297010857325" lon="-4.007122456167324"><ele>231.0</ele><time>2026-04-19T13:25:03Z</time></trkpt><trkpt lat="48.353254004526846" lon="-4.007047890432236"><ele>231.0</ele><time>2026-04-19T13:25:04Z</time></trkpt><trkpt lat="48.35317681765582" lon="-4.007039260297104"><ele>231.0</ele><time>2026-04-19T13:25:05Z</time></trkpt><trkpt lat="48.353055101419656" lon="-4.007068438352803"><ele>231.0</ele><time>2026-04-19T13:25:06Z</time></trkpt><trkpt lat="48.35292075409058" lon="-4.007114278458675"><ele>230.25</ele><time>2026-04-19T13:25:07Z</time></trkpt><trkpt lat="48.3527889432042" lon="-4.007143582610325"><ele>229.5</ele><time>2026-04-19T13:25:08Z</time></trkpt><trkpt lat="48.35264778200849" lon="-4.0071871371905745"><ele>228.75</ele><time>2026-04-19T13:25:09Z</time></trkpt><trkpt lat="48.35250191793917" lon="-4.007235000886904"><ele>228.0</ele><time>2026-04-19T13:25:10Z</time></trkpt><trkpt lat="48.35237347913067" lon="-4.0072657917000125"><ele>228.0</ele><time>2026-04-19T13:25:11Z</time></trkpt><trkpt lat="48.35225770943856" lon="-4.007290573099426"><ele>228.0</ele><time>2026-04-19T13:25:12Z</time></trkpt><trkpt lat="48.3521493456469" lon="-4.007324505955148"><ele>228.0</ele><time>2026-04-19T13:25:13Z</time></trkpt><trkpt lat="48.35206651736959" lon="-4.007348498645979"><ele>228.0</ele><time>2026-04-19T13:25:14Z</time></trkpt><trkpt lat="48.35199043702338" lon="-4.00735973435717"><ele>228.0</ele><time>2026-04-19T13:25:16Z</time></trkpt><trkpt lat="48.35185587946406" lon="-4.007347408257101"><ele>227.2</ele><time>2026-04-19T13:25:18Z</time></trkpt><trkpt lat="48.35175453501861" lon="-4.007404046441848"><ele>226.4</ele><time>2026-04-19T13:25:19Z</time></trkpt><trkpt lat="48.35163648901612" lon="-4.007447836557255"><ele>225.59999999999997</ele><time>2026-04-19T13:25:20Z</time></trkpt><trkpt lat="48.351529817453326" lon="-4.007474569207528"><ele>224.79999999999998</ele><time>2026-04-19T13:25:21Z</time></trkpt><trkpt lat="48.35145081302913" lon="-4.007503076464149"><ele>224.0</ele><time>2026-04-19T13:25:22Z</time></trkpt><trkpt lat="48.35135125793626" lon="-4.007546687939167"><ele>223.25</ele><time>2026-04-19T13:25:23Z</time></trkpt><trkpt lat="48.351228148353464" lon="-4.007594412087409"><ele>222.5</ele><time>2026-04-19T13:25:24Z</time></trkpt><trkpt lat="48.351074003836985" lon="-4.0076421633884385"><ele>221.75</ele><time>2026-04-19T13:25:25Z</time></trkpt><trkpt lat="48.35091207887339" lon="-4.007674158622424"><ele>221.0</ele><time>2026-04-19T13:25:26Z</time></trkpt><trkpt lat="48.35077147598665" lon="-4.0076982322998065"><ele>221.00000000000003</ele><time>2026-04-19T13:25:27Z</time></trkpt><trkpt lat="48.3506831923311" lon="-4.007724079847847"><ele>221.0</ele><time>2026-04-19T13:25:28Z</time></trkpt><trkpt lat="48.350661148890794" lon="-4.007851857960508"><ele>221.0</ele><time>2026-04-19T13:38:29Z</time></trkpt><trkpt lat="48.3506656137918" lon="-4.007965072722812"><ele>221.0</ele><time>2026-04-19T13:38:31Z</time></trkpt><trkpt lat="48.3506723921751" lon="-4.008090131808828"><ele>221.00000000000003</ele><time>2026-04-19T13:38:33Z</time></trkpt><trkpt lat="48.35064259253259" lon="-4.008195418937267"><ele>221.0</ele><time>2026-04-19T13:38:35Z</time></trkpt><trkpt lat="48.35055374819571" lon="-4.008236470263091"><ele>221.20000000000002</ele><time>2026-04-19T13:38:37Z</time></trkpt><trkpt lat="48.350463527043324" lon="-4.008275141374988"><ele>221.40000000000003</ele><time>2026-04-19T13:38:39Z</time></trkpt><trkpt lat="48.35036862588388" lon="-4.008333029709702"><ele>221.6</ele><time>2026-04-19T13:38:41Z</time></trkpt><trkpt lat="48.350289929607996" lon="-4.008372151552932"><ele>221.8</ele><time>2026-04-19T13:38:42Z</time></trkpt><trkpt lat="48.35018944785973" lon="-4.00841417129308"><ele>222.0</ele><time>2026-04-19T13:38:43Z</time></trkpt><trkpt lat="48.350087457433645" lon="-4.0084742413426"><ele>222.0</ele><time>2026-04-19T13:38:44Z</time></trkpt><trkpt lat="48.34999337081473" lon="-4.0085216677396005"><ele>222.0</ele><time>2026-04-19T13:38:45Z</time></trkpt><trkpt lat="48.349891509724024" lon="-4.008577535561029"><ele>222.0</ele><time>2026-04-19T13:38:46Z</time></trkpt><trkpt lat="48.349795425290544" lon="-4.008627028780276"><ele>222.0</ele><time>2026-04-19T13:38:47Z</time></trkpt><trkpt lat="48.34969309505805" lon="-4.008659098554163"><ele>222.0</ele><time>2026-04-19T13:38:48Z</time></trkpt><trkpt lat="48.34959578070097" lon="-4.008695301527091"><ele>221.5</ele><time>2026-04-19T13:38:49Z</time></trkpt><trkpt lat="48.34950311381722" lon="-4.008724407006552"><ele>221.0</ele><time>2026-04-19T13:38:50Z</time></trkpt><trkpt lat="48.349426479069045" lon="-4.0087385511182525"><ele>220.5</ele><time>2026-04-19T13:38:51Z</time></trkpt><trkpt lat="48.349357344711535" lon="-4.008770494155797"><ele>220.0</ele><time>2026-04-19T13:38:52Z</time></trkpt><trkpt lat="48.34925393892924" lon="-4.008785801875881"><ele>219.5</ele><time>2026-04-19T13:38:53Z</time></trkpt><trkpt lat="48.34916094872373" lon="-4.008823322786843"><ele>219.0</ele><time>2026-04-19T13:38:54Z</time></trkpt><trkpt lat="48.34908472887619" lon="-4.008844100320471"><ele>219.0</ele><time>2026-04-19T13:38:55Z</time></trkpt><trkpt lat="48.348986026363484" lon="-4.008844835340713"><ele>218.99999999999997</ele><time>2026-04-19T13:38:56Z</time></trkpt><trkpt lat="48.34888013053875" lon="-4.008873211382157"><ele>218.99999999999997</ele><time>2026-04-19T13:38:58Z</time></trkpt><trkpt lat="48.34880241656343" lon="-4.0088788288406905"><ele>219.0</ele><time>2026-04-19T13:38:59Z</time></trkpt><trkpt lat="48.34871313344887" lon="-4.008902516699043"><ele>219.0</ele><time>2026-04-19T13:39:00Z</time></trkpt><trkpt lat="48.34862761173287" lon="-4.0088443198873565"><ele>218.75</ele><time>2026-04-19T13:39:02Z</time></trkpt><trkpt lat="48.34853730174352" lon="-4.0088418940249975"><ele>218.5</ele><time>2026-04-19T13:39:03Z</time></trkpt><trkpt lat="48.34842175547445" lon="-4.008826731468233"><ele>218.25</ele><time>2026-04-19T13:39:04Z</time></trkpt><trkpt lat="48.348312573522456" lon="-4.00880470921122"><ele>218.0</ele><time>2026-04-19T13:39:04.999Z</time></trkpt><trkpt lat="48.348171003581506" lon="-4.008761870808114"><ele>218.0</ele><time>2026-04-19T13:39:05.999Z</time></trkpt><trkpt lat="48.348056894520404" lon="-4.008734690109368"><ele>218.0</ele><time>2026-04-19T13:39:06.999Z</time></trkpt><trkpt lat="48.34798239063774" lon="-4.008720860774925"><ele>218.0</ele><time>2026-04-19T13:39:07.999Z</time></trkpt><trkpt lat="48.34787992280978" lon="-4.008692563023999"><ele>218.0</ele><time>2026-04-19T13:39:08.999Z</time></trkpt><trkpt lat="48.34776137450474" lon="-4.008670766373759"><ele>218.0</ele><time>2026-04-19T13:39:09.999Z</time></trkpt><trkpt lat="48.34765933402621" lon="-4.00863637367289"><ele>218.33333333333334</ele><time>2026-04-19T13:39:10.999Z</time></trkpt><trkpt lat="48.34757853160193" lon="-4.008613719617873"><ele>218.66666666666669</ele><time>2026-04-19T13:39:11.999Z</time></trkpt><trkpt lat="48.3475127151285" lon="-4.0086057959013734"><ele>219.0</ele><time>2026-04-19T13:39:12.999Z</time></trkpt><trkpt lat="48.347451000496335" lon="-4.008637334824359"><ele>219.33333333333331</ele><time>2026-04-19T13:39:13.999Z</time></trkpt><trkpt lat="48.347425370472976" lon="-4.008728860701247"><ele>219.66666666666666</ele><time>2026-04-19T13:39:14.999Z</time></trkpt><trkpt lat="48.3473863741285" lon="-4.008884587698774"><ele>220.0</ele><time>2026-04-19T13:39:15.999Z</time></trkpt><trkpt lat="48.347352323084756" lon="-4.009065540772932"><ele>220.66666666666666</ele><time>2026-04-19T13:39:16.999Z</time></trkpt><trkpt lat="48.3473124011236" lon="-4.009211602940339"><ele>221.33333333333331</ele><time>2026-04-19T13:39:17.999Z</time></trkpt><trkpt lat="48.347270215947525" lon="-4.009333905113701"><ele>222.0</ele><time>2026-04-19T13:39:18.999Z</time></trkpt><trkpt lat="48.34722931111419" lon="-4.0094320764304845"><ele>222.66666666666669</ele><time>2026-04-19T13:39:19.999Z</time></trkpt><trkpt lat="48.34718692066528" lon="-4.009532853146758"><ele>223.33333333333334</ele><time>2026-04-19T13:39:21.999Z</time></trkpt><trkpt lat="48.34710055889793" lon="-4.009523636266561"><ele>224.0</ele><time>2026-04-19T13:39:24.999Z</time></trkpt><trkpt lat="48.346973774870335" lon="-4.009484886624402"><ele>224.00000000000003</ele><time>2026-04-19T13:39:26.999Z</time></trkpt><trkpt lat="48.34689862963789" lon="-4.009475100336833"><ele>224.0</ele><time>2026-04-19T13:39:27.999Z</time></trkpt><trkpt lat="48.34681284126745" lon="-4.009509238464413"><ele>224.0</ele><time>2026-04-19T13:39:28.999Z</time></trkpt><trkpt lat="48.34672853336501" lon="-4.0094964629358305"><ele>224.0</ele><time>2026-04-19T13:39:29.999Z</time></trkpt><trkpt lat="48.34663788047518" lon="-4.009483182120878"><ele>224.00000000000003</ele><time>2026-04-19T13:39:30.999Z</time></trkpt><trkpt lat="48.3465519731115" lon="-4.009470596533568"><ele>224.0</ele><time>2026-04-19T13:39:31.999Z</time></trkpt><trkpt lat="48.346480281326585" lon="-4.009437376255903"><ele>224.0</ele><time>2026-04-19T13:39:32.999Z</time></trkpt><trkpt lat="48.34641730639513" lon="-4.009433365985197"><ele>223.99999999999997</ele><time>2026-04-19T13:39:33.999Z</time></trkpt><trkpt lat="48.346544728859996" lon="-4.009469535248951"><ele>223.99999999999997</ele><time>2026-04-19T13:39:40.999Z</time></trkpt><trkpt lat="48.34662513498456" lon="-4.0094813148951305"><ele>224.0</ele><time>2026-04-19T13:39:41.999Z</time></trkpt><trkpt lat="48.34671152023377" lon="-4.009493970495851"><ele>224.0</ele><time>2026-04-19T13:39:42.999Z</time></trkpt><trkpt lat="48.34680792892853" lon="-4.009508094550631"><ele>224.0</ele><time>2026-04-19T13:39:44Z</time></trkpt><trkpt lat="48.346907401734775" lon="-4.009501455772511"><ele>223.99999999999997</ele><time>2026-04-19T13:39:45Z</time></trkpt><trkpt lat="48.34700882737221" lon="-4.009522376831015"><ele>223.99999999999997</ele><time>2026-04-19T13:39:46Z</time></trkpt><trkpt lat="48.34710941847767" lon="-4.009544187247392"><ele>224.0</ele><time>2026-04-19T13:39:47Z</time></trkpt><trkpt lat="48.34721923755327" lon="-4.009575879309274"><ele>224.0</ele><time>2026-04-19T13:39:48Z</time></trkpt><trkpt lat="48.347331289714745" lon="-4.009594024969044"><ele>224.33333333333334</ele><time>2026-04-19T13:39:49Z</time></trkpt><trkpt lat="48.34746849671204" lon="-4.009677138712838"><ele>224.66666666666669</ele><time>2026-04-19T13:39:50Z</time></trkpt><trkpt lat="48.34761366555461" lon="-4.009720524701868"><ele>225.0</ele><time>2026-04-19T13:39:51Z</time></trkpt><trkpt lat="48.34777175669035" lon="-4.0097677727225225"><ele>225.0</ele><time>2026-04-19T13:39:52Z</time></trkpt><trkpt lat="48.347931846728684" lon="-4.0098093232529"><ele>225.0</ele><time>2026-04-19T13:39:53Z</time></trkpt><trkpt lat="48.34810619703951" lon="-4.00971997465823"><ele>225.0</ele><time>2026-04-19T13:39:54Z</time></trkpt><trkpt lat="48.348257810518774" lon="-4.009744108518573"><ele>225.5</ele><time>2026-04-19T13:39:55Z</time></trkpt><trkpt lat="48.34840638315449" lon="-4.009769988036816"><ele>226.0</ele><time>2026-04-19T13:39:56Z</time></trkpt><trkpt lat="48.34855179998187" lon="-4.009795620521824"><ele>226.5</ele><time>2026-04-19T13:39:57Z</time></trkpt><trkpt lat="48.348690314452305" lon="-4.0098182308361885"><ele>227.0</ele><time>2026-04-19T13:39:58Z</time></trkpt><trkpt lat="48.34881332959246" lon="-4.009837851340515"><ele>227.2</ele><time>2026-04-19T13:39:59Z</time></trkpt><trkpt lat="48.34892391975853" lon="-4.009848993818622"><ele>227.39999999999998</ele><time>2026-04-19T13:40:00Z</time></trkpt><trkpt lat="48.349027203135726" lon="-4.009855298488662"><ele>227.60000000000002</ele><time>2026-04-19T13:40:01Z</time></trkpt><trkpt lat="48.34912020169554" lon="-4.009841476659788"><ele>227.8</ele><time>2026-04-19T13:40:02Z</time></trkpt><trkpt lat="48.349201391093835" lon="-4.009828576656054"><ele>228.0</ele><time>2026-04-19T13:40:03Z</time></trkpt><trkpt lat="48.349265612482355" lon="-4.009815346480764"><ele>228.0</ele><time>2026-04-19T13:40:04Z</time></trkpt><trkpt lat="48.34919730429468" lon="-4.009851693501836"><ele>228.0</ele><time>2026-04-19T13:40:12Z</time></trkpt><trkpt lat="48.349197163460445" lon="-4.01024734927547"><ele>228.0</ele><time>2026-04-19T13:40:13Z</time></trkpt><trkpt lat="48.34918004218125" lon="-4.010358857573741"><ele>228.0</ele><time>2026-04-19T13:40:14Z</time></trkpt><trkpt lat="48.34916115423602" lon="-4.010472823888548"><ele>227.66666666666666</ele><time>2026-04-19T13:40:15Z</time></trkpt><trkpt lat="48.349139671871086" lon="-4.010576276692126"><ele>227.33333333333331</ele><time>2026-04-19T13:40:16Z</time></trkpt><trkpt lat="48.34911447448858" lon="-4.01072722242789"><ele>227.0</ele><time>2026-04-19T13:40:18Z</time></trkpt><trkpt lat="48.34911755557876" lon="-4.010860019041987"><ele>226.66666666666666</ele><time>2026-04-19T13:40:20Z</time></trkpt><trkpt lat="48.349132329697284" lon="-4.01097121193422"><ele>226.33333333333331</ele><time>2026-04-19T13:40:21Z</time></trkpt><trkpt lat="48.34914672945266" lon="-4.011090007776381"><ele>226.0</ele><time>2026-04-19T13:40:22Z</time></trkpt><trkpt lat="48.34914855284342" lon="-4.011272680821633"><ele>224.8</ele><time>2026-04-19T13:40:24Z</time></trkpt><trkpt lat="48.34916945019707" lon="-4.011442188374804"><ele>223.60000000000002</ele><time>2026-04-19T13:40:26Z</time></trkpt><trkpt lat="48.34914474492548" lon="-4.011548153927947"><ele>222.4</ele><time>2026-04-19T13:40:27Z</time></trkpt><trkpt lat="48.34912789219445" lon="-4.011669413510914"><ele>221.2</ele><time>2026-04-19T13:40:28Z</time></trkpt><trkpt lat="48.349109993170124" lon="-4.0118192142731575"><ele>220.0</ele><time>2026-04-19T13:40:29Z</time></trkpt><trkpt lat="48.34909124247269" lon="-4.011961155754823"><ele>218.99999999999997</ele><time>2026-04-19T13:40:30Z</time></trkpt><trkpt lat="48.349070110218214" lon="-4.012071117655066"><ele>218.0</ele><time>2026-04-19T13:40:31Z</time></trkpt><trkpt lat="48.349039237605155" lon="-4.012157887357182"><ele>217.0</ele><time>2026-04-19T13:40:32Z</time></trkpt><trkpt lat="48.348908253956104" lon="-4.012159123510157"><ele>216.0</ele><time>2026-04-19T13:40:35Z</time></trkpt><trkpt lat="48.34881850424626" lon="-4.0121312622016445"><ele>214.99999999999997</ele><time>2026-04-19T13:40:36Z</time></trkpt><trkpt lat="48.348738553872124" lon="-4.012147668707006"><ele>214.0</ele><time>2026-04-19T13:40:37Z</time></trkpt><trkpt lat="48.348676262173356" lon="-4.01221022753465"><ele>213.99999999999997</ele><time>2026-04-19T13:40:37.999Z</time></trkpt><trkpt lat="48.34866914582531" lon="-4.012373296053202"><ele>214.0</ele><time>2026-04-19T13:40:39.999Z</time></trkpt><trkpt lat="48.34866275286834" lon="-4.012496365683311"><ele>214.0</ele><time>2026-04-19T13:40:40.999Z</time></trkpt><trkpt lat="48.348641837458956" lon="-4.012644424850818"><ele>214.0</ele><time>2026-04-19T13:40:41.999Z</time></trkpt><trkpt lat="48.34861730443253" lon="-4.012742050118125"><ele>213.99999999999997</ele><time>2026-04-19T13:40:42.999Z</time></trkpt><trkpt lat="48.348603989451085" lon="-4.0128400212527815"><ele>214.0</ele><time>2026-04-19T13:40:43.999Z</time></trkpt><trkpt lat="48.348583347300185" lon="-4.012974058253758"><ele>212.99999999999997</ele><time>2026-04-19T13:40:45.999Z</time></trkpt><trkpt lat="48.34863811168754" lon="-4.013040424445278"><ele>212.0</ele><time>2026-04-19T13:40:47.999Z</time></trkpt><trkpt lat="48.34866619605125" lon="-4.013139727935021"><ele>211.0</ele><time>2026-04-19T13:40:49.999Z</time></trkpt><trkpt lat="48.34863660803762" lon="-4.013283777046243"><ele>210.0</ele><time>2026-04-19T13:40:51.999Z</time></trkpt><trkpt lat="48.348606959888514" lon="-4.013384100176202"><ele>208.99999999999997</ele><time>2026-04-19T13:40:53.999Z</time></trkpt><trkpt lat="48.34856768630599" lon="-4.013517430784286"><ele>208.0</ele><time>2026-04-19T13:40:55.999Z</time></trkpt><trkpt lat="48.348548885313804" lon="-4.01367538917998"><ele>206.4</ele><time>2026-04-19T13:40:57.999Z</time></trkpt><trkpt lat="48.34850590086134" lon="-4.013806438156369"><ele>204.8</ele><time>2026-04-19T13:40:59.999Z</time></trkpt><trkpt lat="48.34847829729525" lon="-4.013899956152961"><ele>203.2</ele><time>2026-04-19T13:41:01.999Z</time></trkpt><trkpt lat="48.34842566424931" lon="-4.014022785033279"><ele>201.6</ele><time>2026-04-19T13:41:03.999Z</time></trkpt><trkpt lat="48.348362517439995" lon="-4.014110216252453"><ele>200.0</ele><time>2026-04-19T13:41:05.999Z</time></trkpt><trkpt lat="48.34828149526375" lon="-4.014218171946185"><ele>198.6</ele><time>2026-04-19T13:41:07.999Z</time></trkpt><trkpt lat="48.34819601625383" lon="-4.014329979545657"><ele>197.2</ele><time>2026-04-19T13:41:09.999Z</time></trkpt><trkpt lat="48.348123936784" lon="-4.014460350393365"><ele>195.8</ele><time>2026-04-19T13:41:11.999Z</time></trkpt><trkpt lat="48.34806898070914" lon="-4.014549157234759"><ele>194.4</ele><time>2026-04-19T13:41:13.999Z</time></trkpt><trkpt lat="48.34800597584708" lon="-4.014676019053372"><ele>193.0</ele><time>2026-04-19T13:41:15.999Z</time></trkpt><trkpt lat="48.34795577784357" lon="-4.014774327081657"><ele>192.99999999999997</ele><time>2026-04-19T13:41:18.999Z</time></trkpt><trkpt lat="48.347952217214676" lon="-4.01488053632851"><ele>193.0</ele><time>2026-04-19T13:41:20.999Z</time></trkpt><trkpt lat="48.34791873774621" lon="-4.015029985622619"><ele>193.0</ele><time>2026-04-19T13:41:22.999Z</time></trkpt><trkpt lat="48.34787789438206" lon="-4.015172801864087"><ele>193.0</ele><time>2026-04-19T13:41:24.999Z</time></trkpt><trkpt lat="48.3478498574372" lon="-4.015262274292607"><ele>192.99999999999997</ele><time>2026-04-19T13:41:25.999Z</time></trkpt><trkpt lat="48.34781649242692" lon="-4.015349100003069"><ele>193.0</ele><time>2026-04-19T13:41:26.999Z</time></trkpt><trkpt lat="48.347784113884224" lon="-4.015453925937753"><ele>191.16666666666666</ele><time>2026-04-19T13:41:28.999Z</time></trkpt><trkpt lat="48.34773078206739" lon="-4.015522675208855"><ele>189.33333333333331</ele><time>2026-04-19T13:41:30.999Z</time></trkpt><trkpt lat="48.34766984009688" lon="-4.015582214490849"><ele>187.5</ele><time>2026-04-19T13:41:32.999Z</time></trkpt><trkpt lat="48.34759092336598" lon="-4.01561637298539"><ele>185.66666666666666</ele><time>2026-04-19T13:41:34.999Z</time></trkpt><trkpt lat="48.34748074186463" lon="-4.015602663095654"><ele>183.83333333333331</ele><time>2026-04-19T13:41:36.999Z</time></trkpt><trkpt lat="48.347373407409" lon="-4.01561383745263"><ele>182.0</ele><time>2026-04-19T13:41:38.999Z</time></trkpt><trkpt lat="48.347305692358894" lon="-4.015682143599481"><ele>182.0</ele><time>2026-04-19T13:41:40.999Z</time></trkpt><trkpt lat="48.34726629000106" lon="-4.015764519125486"><ele>182.0</ele><time>2026-04-19T13:41:42.999Z</time></trkpt><trkpt lat="48.34721375390559" lon="-4.015859466292454"><ele>182.0</ele><time>2026-04-19T13:41:44.999Z</time></trkpt><trkpt lat="48.34718809772616" lon="-4.015952607557169"><ele>182.0</ele><time>2026-04-19T13:41:46.999Z</time></trkpt><trkpt lat="48.34721869294509" lon="-4.015838352870097"><ele>182.0</ele><time>2026-04-19T13:42:53.999Z</time></trkpt><trkpt lat="48.34719997780002" lon="-4.015716922454928"><ele>182.0</ele><time>2026-04-19T13:42:55.999Z</time></trkpt><trkpt lat="48.34716851387432" lon="-4.015546867552758"><ele>183.0</ele><time>2026-04-19T13:42:57.999Z</time></trkpt><trkpt lat="48.347165038277254" lon="-4.015435590238976"><ele>184.0</ele><time>2026-04-19T13:42:58.999Z</time></trkpt><trkpt lat="48.34715611530744" lon="-4.015318803026142"><ele>185.0</ele><time>2026-04-19T13:42:59.999Z</time></trkpt><trkpt lat="48.34708366471046" lon="-4.015179048420276"><ele>186.0</ele><time>2026-04-19T13:43:01.999Z</time></trkpt><trkpt lat="48.34703301723068" lon="-4.015119731873387"><ele>187.0</ele><time>2026-04-19T13:43:02.999Z</time></trkpt><trkpt lat="48.34696468508465" lon="-4.015072327846911"><ele>188.0</ele><time>2026-04-19T13:43:03.999Z</time></trkpt><trkpt lat="48.34688424131599" lon="-4.01504287851379"><ele>188.0</ele><time>2026-04-19T13:43:04.999Z</time></trkpt><trkpt lat="48.3468090362173" lon="-4.015023273842321"><ele>188.0</ele><time>2026-04-19T13:43:05.999Z</time></trkpt><trkpt lat="48.34674436291663" lon="-4.015006891769812"><ele>188.0</ele><time>2026-04-19T13:43:06.999Z</time></trkpt><trkpt lat="48.34662559930011" lon="-4.014984149079348"><ele>188.0</ele><time>2026-04-19T13:43:08.999Z</time></trkpt><trkpt lat="48.34655498399701" lon="-4.014952687833582"><ele>188.0</ele><time>2026-04-19T13:43:09.999Z</time></trkpt><trkpt lat="48.34648662988744" lon="-4.014925397841799"><ele>188.0</ele><time>2026-04-19T13:43:10.999Z</time></trkpt><trkpt lat="48.34641913492167" lon="-4.014900073136849"><ele>189.57142857142856</ele><time>2026-04-19T13:43:11.999Z</time></trkpt><trkpt lat="48.34634949975071" lon="-4.014866079184711"><ele>191.14285714285714</ele><time>2026-04-19T13:43:12.999Z</time></trkpt><trkpt lat="48.3462804511518" lon="-4.014842726785126"><ele>192.71428571428572</ele><time>2026-04-19T13:43:13.999Z</time></trkpt><trkpt lat="48.34621222441988" lon="-4.01480028180074"><ele>194.28571428571428</ele><time>2026-04-19T13:43:14.999Z</time></trkpt><trkpt lat="48.34615287321412" lon="-4.0147505367909995"><ele>195.85714285714286</ele><time>2026-04-19T13:43:15.999Z</time></trkpt><trkpt lat="48.346084958939606" lon="-4.0146883432401115"><ele>197.42857142857142</ele><time>2026-04-19T13:43:16.999Z</time></trkpt><trkpt lat="48.34601582089938" lon="-4.014625180048688"><ele>199.0</ele><time>2026-04-19T13:43:17.999Z</time></trkpt><trkpt lat="48.34594200194004" lon="-4.014571539398421"><ele>198.99999999999997</ele><time>2026-04-19T13:43:18.999Z</time></trkpt><trkpt lat="48.345847928655765" lon="-4.014525941842464"><ele>199.0</ele><time>2026-04-19T13:43:19.999Z</time></trkpt><trkpt lat="48.345767511153674" lon="-4.014505471543424"><ele>199.0</ele><time>2026-04-19T13:43:20.999Z</time></trkpt><trkpt lat="48.345678984016736" lon="-4.014491355806558"><ele>199.0</ele><time>2026-04-19T13:43:21.999Z</time></trkpt><trkpt lat="48.34559459239286" lon="-4.014466416899578"><ele>198.99999999999997</ele><time>2026-04-19T13:43:22.999Z</time></trkpt><trkpt lat="48.34552886068001" lon="-4.014436503738747"><ele>199.0</ele><time>2026-04-19T13:43:23.999Z</time></trkpt><trkpt lat="48.34545021044545" lon="-4.014394067326674"><ele>198.79999999999998</ele><time>2026-04-19T13:43:24.999Z</time></trkpt><trkpt lat="48.345358933434056" lon="-4.014357347640366"><ele>198.6</ele><time>2026-04-19T13:43:25.999Z</time></trkpt><trkpt lat="48.34525784194769" lon="-4.01431850410617"><ele>198.4</ele><time>2026-04-19T13:43:26.999Z</time></trkpt><trkpt lat="48.34518073737205" lon="-4.014276945246918"><ele>198.2</ele><time>2026-04-19T13:43:27.999Z</time></trkpt><trkpt lat="48.34511038307094" lon="-4.014247987957793"><ele>198.0</ele><time>2026-04-19T13:43:28.999Z</time></trkpt><trkpt lat="48.34499152906242" lon="-4.014200824870409"><ele>198.0</ele><time>2026-04-19T13:43:30.999Z</time></trkpt><trkpt lat="48.34486506899697" lon="-4.014183307718504"><ele>198.0</ele><time>2026-04-19T13:43:32.999Z</time></trkpt><trkpt lat="48.34480212813732" lon="-4.014136419901338"><ele>198.0</ele><time>2026-04-19T13:43:33.999Z</time></trkpt><trkpt lat="48.34474836279485" lon="-4.014085872385509"><ele>198.0</ele><time>2026-04-19T13:43:34.999Z</time></trkpt><trkpt lat="48.34465914045866" lon="-4.014012809831493"><ele>198.0</ele><time>2026-04-19T13:43:36.999Z</time></trkpt><trkpt lat="48.344563494650515" lon="-4.013867711547848"><ele>197.66666666666666</ele><time>2026-04-19T13:43:38.999Z</time></trkpt><trkpt lat="48.34450123491832" lon="-4.013785641200352"><ele>197.33333333333331</ele><time>2026-04-19T13:43:39.999Z</time></trkpt><trkpt lat="48.34443434496001" lon="-4.013702626002301"><ele>197.0</ele><time>2026-04-19T13:43:40.999Z</time></trkpt><trkpt lat="48.344380065817354" lon="-4.013625167562774"><ele>196.66666666666666</ele><time>2026-04-19T13:43:41.999Z</time></trkpt><trkpt lat="48.344321651195806" lon="-4.013529381659725"><ele>196.33333333333331</ele><time>2026-04-19T13:43:42.999Z</time></trkpt><trkpt lat="48.34426350477431" lon="-4.013457410184304"><ele>196.0</ele><time>2026-04-19T13:43:43.999Z</time></trkpt><trkpt lat="48.34419652114172" lon="-4.013394985351987"><ele>195.99999999999997</ele><time>2026-04-19T13:43:44.999Z</time></trkpt><trkpt lat="48.34414581398527" lon="-4.0133326984115465"><ele>196.0</ele><time>2026-04-19T13:43:45.999Z</time></trkpt><trkpt lat="48.34406179087865" lon="-4.013260476321547"><ele>196.0</ele><time>2026-04-19T13:43:47.999Z</time></trkpt><trkpt lat="48.34402635662579" lon="-4.01313781026097"><ele>196.0</ele><time>2026-04-19T13:43:51.999Z</time></trkpt><trkpt lat="48.34408954021391" lon="-4.01302094986122"><ele>195.99999999999997</ele><time>2026-04-19T13:43:52.999Z</time></trkpt><trkpt lat="48.34413814860969" lon="-4.012927306171235"><ele>196.0</ele><time>2026-04-19T13:43:53.999Z</time></trkpt><trkpt lat="48.34419072518149" lon="-4.012783845418224"><ele>196.0</ele><time>2026-04-19T13:43:54.999Z</time></trkpt><trkpt lat="48.34424181732726" lon="-4.012647617749444"><ele>196.0</ele><time>2026-04-19T13:43:55.999Z</time></trkpt><trkpt lat="48.3442959957872" lon="-4.012500240441341"><ele>196.0</ele><time>2026-04-19T13:43:56.999Z</time></trkpt><trkpt lat="48.34435606312484" lon="-4.0123356255649725"><ele>196.0</ele><time>2026-04-19T13:43:57.999Z</time></trkpt><trkpt lat="48.34441876700435" lon="-4.012159793134816"><ele>196.0</ele><time>2026-04-19T13:43:58.999Z</time></trkpt><trkpt lat="48.34448172931529" lon="-4.011988854601329"><ele>196.0</ele><time>2026-04-19T13:43:59.999Z</time></trkpt><trkpt lat="48.34454450054711" lon="-4.011805057498214"><ele>196.0</ele><time>2026-04-19T13:44:00.999Z</time></trkpt><trkpt lat="48.34459200485362" lon="-4.011613853691061"><ele>196.0</ele><time>2026-04-19T13:44:01.999Z</time></trkpt><trkpt lat="48.344627448062205" lon="-4.011407333144228"><ele>196.0</ele><time>2026-04-19T13:44:02.999Z</time></trkpt><trkpt lat="48.34465353024538" lon="-4.011193527443043"><ele>196.0</ele><time>2026-04-19T13:44:03.999Z</time></trkpt><trkpt lat="48.344651477510304" lon="-4.010981687527919"><ele>196.0</ele><time>2026-04-19T13:44:04.999Z</time></trkpt><trkpt lat="48.3446093805841" lon="-4.0107824027533345"><ele>196.0</ele><time>2026-04-19T13:44:05.999Z</time></trkpt><trkpt lat="48.34456141372034" lon="-4.01056931523785"><ele>196.0</ele><time>2026-04-19T13:44:06.999Z</time></trkpt><trkpt lat="48.34452553392213" lon="-4.0103536736621415"><ele>196.0</ele><time>2026-04-19T13:44:07.999Z</time></trkpt><trkpt lat="48.34447893219213" lon="-4.010145795861953"><ele>196.0</ele><time>2026-04-19T13:44:08.999Z</time></trkpt><trkpt lat="48.34444235721536" lon="-4.009940329333635"><ele>196.0</ele><time>2026-04-19T13:44:09.999Z</time></trkpt><trkpt lat="48.344406415270484" lon="-4.0097275723248265"><ele>196.66666666666666</ele><time>2026-04-19T13:44:10.999Z</time></trkpt><trkpt lat="48.34438068537206" lon="-4.0095120435270974"><ele>197.33333333333331</ele><time>2026-04-19T13:44:11.999Z</time></trkpt><trkpt lat="48.34436516013058" lon="-4.0092845491640405"><ele>198.0</ele><time>2026-04-19T13:44:12.999Z</time></trkpt><trkpt lat="48.34434916448288" lon="-4.009053993160428"><ele>196.66666666666669</ele><time>2026-04-19T13:44:13.999Z</time></trkpt><trkpt lat="48.344334131829505" lon="-4.008819661318841"><ele>195.33333333333334</ele><time>2026-04-19T13:44:14.999Z</time></trkpt><trkpt lat="48.344322131392936" lon="-4.008583829620157"><ele>194.0</ele><time>2026-04-19T13:44:15.999Z</time></trkpt><trkpt lat="48.34432382026104" lon="-4.0083597482751525"><ele>190.66666666666669</ele><time>2026-04-19T13:44:16.999Z</time></trkpt><trkpt lat="48.34435105223986" lon="-4.008147413022842"><ele>187.33333333333334</ele><time>2026-04-19T13:44:17.999Z</time></trkpt><trkpt lat="48.344404501408484" lon="-4.007924736675353"><ele>184.0</ele><time>2026-04-19T13:44:18.999Z</time></trkpt><trkpt lat="48.34447169541891" lon="-4.007717025136377"><ele>184.0</ele><time>2026-04-19T13:44:19.999Z</time></trkpt><trkpt lat="48.34454802907346" lon="-4.0075196192867"><ele>184.0</ele><time>2026-04-19T13:44:20.999Z</time></trkpt><trkpt lat="48.34463038697004" lon="-4.007342333266914"><ele>184.0</ele><time>2026-04-19T13:44:21.999Z</time></trkpt><trkpt lat="48.344726562886855" lon="-4.007176811379694"><ele>184.0</ele><time>2026-04-19T13:44:22.999Z</time></trkpt><trkpt lat="48.34483825256743" lon="-4.007032008684987"><ele>185.66666666666669</ele><time>2026-04-19T13:44:23.999Z</time></trkpt><trkpt lat="48.34497045177333" lon="-4.006902618443278"><ele>187.33333333333334</ele><time>2026-04-19T13:44:24.999Z</time></trkpt><trkpt lat="48.345107443498684" lon="-4.006776637753022"><ele>189.0</ele><time>2026-04-19T13:44:25.999Z</time></trkpt><trkpt lat="48.34522959621558" lon="-4.006621410805696"><ele>188.66666666666666</ele><time>2026-04-19T13:44:26.999Z</time></trkpt><trkpt lat="48.345333575042346" lon="-4.0064495566635685"><ele>188.33333333333331</ele><time>2026-04-19T13:44:27.999Z</time></trkpt><trkpt lat="48.3454365830684" lon="-4.006279167148836"><ele>188.0</ele><time>2026-04-19T13:44:28.999Z</time></trkpt><trkpt lat="48.3455530656638" lon="-4.006133898471692"><ele>188.0</ele><time>2026-04-19T13:44:29.999Z</time></trkpt><trkpt lat="48.34568214309835" lon="-4.006020211031572"><ele>188.0</ele><time>2026-04-19T13:44:30.999Z</time></trkpt><trkpt lat="48.34582103835996" lon="-4.005931889385364"><ele>188.0</ele><time>2026-04-19T13:44:31.999Z</time></trkpt><trkpt lat="48.34597303677835" lon="-4.005877356789454"><ele>188.0</ele><time>2026-04-19T13:44:32.999Z</time></trkpt><trkpt lat="48.346136056751746" lon="-4.005852131306352"><ele>188.0</ele><time>2026-04-19T13:44:33.999Z</time></trkpt><trkpt lat="48.346299654464744" lon="-4.005841825705462"><ele>188.0</ele><time>2026-04-19T13:44:34.999Z</time></trkpt><trkpt lat="48.34646232609658" lon="-4.005833412965558"><ele>183.33333333333331</ele><time>2026-04-19T13:44:35.999Z</time></trkpt><trkpt lat="48.34662167447911" lon="-4.005810655388639"><ele>178.66666666666666</ele><time>2026-04-19T13:44:36.999Z</time></trkpt><trkpt lat="48.346768139441046" lon="-4.00576289124001"><ele>174.0</ele><time>2026-04-19T13:44:37.999Z</time></trkpt><trkpt lat="48.34691997618115" lon="-4.005685535584654"><ele>174.0</ele><time>2026-04-19T13:44:38.999Z</time></trkpt><trkpt lat="48.347072074418115" lon="-4.005607148067803"><ele>174.0</ele><time>2026-04-19T13:44:39.999Z</time></trkpt><trkpt lat="48.347229237058244" lon="-4.005551385331442"><ele>174.0</ele><time>2026-04-19T13:44:40.999Z</time></trkpt><trkpt lat="48.34739471042307" lon="-4.005503101159072"><ele>174.33333333333334</ele><time>2026-04-19T13:44:41.999Z</time></trkpt><trkpt lat="48.34756401520852" lon="-4.0054632832653185"><ele>174.66666666666669</ele><time>2026-04-19T13:44:42.999Z</time></trkpt><trkpt lat="48.34772656036663" lon="-4.005421977348261"><ele>175.0</ele><time>2026-04-19T13:44:43.999Z</time></trkpt><trkpt lat="48.347887676993565" lon="-4.005373769573713"><ele>173.66666666666669</ele><time>2026-04-19T13:44:44.999Z</time></trkpt><trkpt lat="48.348043343683756" lon="-4.005303553267556"><ele>172.33333333333334</ele><time>2026-04-19T13:44:45.999Z</time></trkpt><trkpt lat="48.34819941795511" lon="-4.005209584335584"><ele>171.0</ele><time>2026-04-19T13:44:46.999Z</time></trkpt><trkpt lat="48.34834427412419" lon="-4.005108358416609"><ele>171.0</ele><time>2026-04-19T13:44:47.999Z</time></trkpt><trkpt lat="48.34849554263963" lon="-4.005020578380997"><ele>171.0</ele><time>2026-04-19T13:44:48.999Z</time></trkpt><trkpt lat="48.348651400474594" lon="-4.004963154868839"><ele>171.0</ele><time>2026-04-19T13:44:49.999Z</time></trkpt><trkpt lat="48.348812489188916" lon="-4.00492769952077"><ele>168.66666666666666</ele><time>2026-04-19T13:44:50.999Z</time></trkpt><trkpt lat="48.34896619630444" lon="-4.004894143269363"><ele>166.33333333333331</ele><time>2026-04-19T13:44:51.999Z</time></trkpt><trkpt lat="48.34911312411613" lon="-4.004831238063759"><ele>164.0</ele><time>2026-04-19T13:44:52.999Z</time></trkpt><trkpt lat="48.349250446047684" lon="-4.00472760685317"><ele>164.0</ele><time>2026-04-19T13:44:53.999Z</time></trkpt><trkpt lat="48.349382048166454" lon="-4.004581231067039"><ele>164.0</ele><time>2026-04-19T13:44:54.999Z</time></trkpt><trkpt lat="48.349495694844514" lon="-4.004419397894605"><ele>164.0</ele><time>2026-04-19T13:44:55.999Z</time></trkpt><trkpt lat="48.34960326706658" lon="-4.004256786385354"><ele>162.5</ele><time>2026-04-19T13:44:56.999Z</time></trkpt><trkpt lat="48.34971350753907" lon="-4.004096464382148"><ele>161.0</ele><time>2026-04-19T13:44:57.999Z</time></trkpt><trkpt lat="48.349821830039176" lon="-4.003942787187229"><ele>159.5</ele><time>2026-04-19T13:44:58.999Z</time></trkpt><trkpt lat="48.349922969137594" lon="-4.0037886755523004"><ele>158.0</ele><time>2026-04-19T13:44:59.999Z</time></trkpt><trkpt lat="48.3500125461371" lon="-4.00364075493898"><ele>158.0</ele><time>2026-04-19T13:45:00.999Z</time></trkpt><trkpt lat="48.35009355146585" lon="-4.003491881256675"><ele>158.0</ele><time>2026-04-19T13:45:01.999Z</time></trkpt><trkpt lat="48.350169711635985" lon="-4.003350727001368"><ele>158.0</ele><time>2026-04-19T13:45:02.999Z</time></trkpt><trkpt lat="48.350241076308826" lon="-4.003212284804434"><ele>158.0</ele><time>2026-04-19T13:45:03.999Z</time></trkpt><trkpt lat="48.350313084030724" lon="-4.003075629978333"><ele>157.75</ele><time>2026-04-19T13:45:04.999Z</time></trkpt><trkpt lat="48.35038954692536" lon="-4.002930545952579"><ele>157.5</ele><time>2026-04-19T13:45:05.999Z</time></trkpt><trkpt lat="48.35046363698867" lon="-4.002796697868266"><ele>157.25</ele><time>2026-04-19T13:45:06.999Z</time></trkpt><trkpt lat="48.35053659221983" lon="-4.00266325185232"><ele>157.0</ele><time>2026-04-19T13:45:07.999Z</time></trkpt><trkpt lat="48.35060940658823" lon="-4.002527584038987"><ele>156.4</ele><time>2026-04-19T13:45:08.999Z</time></trkpt><trkpt lat="48.350680390554" lon="-4.002395812529037"><ele>155.79999999999998</ele><time>2026-04-19T13:45:09.999Z</time></trkpt><trkpt lat="48.350754538749264" lon="-4.002268473622133"><ele>155.2</ele><time>2026-04-19T13:45:10.999Z</time></trkpt><trkpt lat="48.350804274114196" lon="-4.002128047279933"><ele>154.6</ele><time>2026-04-19T13:45:11.999Z</time></trkpt><trkpt lat="48.35086136905838" lon="-4.002000363657192"><ele>154.0</ele><time>2026-04-19T13:45:12.999Z</time></trkpt><trkpt lat="48.35091275468786" lon="-4.001855629015705"><ele>154.0</ele><time>2026-04-19T13:45:13.999Z</time></trkpt><trkpt lat="48.350943240497536" lon="-4.001729482287716"><ele>154.0</ele><time>2026-04-19T13:45:14.999Z</time></trkpt><trkpt lat="48.3509662328394" lon="-4.001579809255622"><ele>154.0</ele><time>2026-04-19T13:45:15.999Z</time></trkpt><trkpt lat="48.35097176500159" lon="-4.001427594564333"><ele>154.0</ele><time>2026-04-19T13:45:16.999Z</time></trkpt><trkpt lat="48.350960612951646" lon="-4.001275503343341"><ele>154.0</ele><time>2026-04-19T13:45:17.999Z</time></trkpt><trkpt lat="48.350937202659594" lon="-4.001128771974597"><ele>154.0</ele><time>2026-04-19T13:45:18.999Z</time></trkpt><trkpt lat="48.35089744939108" lon="-4.000987894347397"><ele>154.0</ele><time>2026-04-19T13:45:19.999Z</time></trkpt><trkpt lat="48.3508440908045" lon="-4.00085354666028"><ele>154.0</ele><time>2026-04-19T13:45:20.999Z</time></trkpt><trkpt lat="48.350771727989326" lon="-4.00075961801191"><ele>154.0</ele><time>2026-04-19T13:45:21.999Z</time></trkpt><trkpt lat="48.350698364719655" lon="-4.000661919431781"><ele>154.0</ele><time>2026-04-19T13:45:22.999Z</time></trkpt><trkpt lat="48.35062273362985" lon="-4.000565531848516"><ele>155.0</ele><time>2026-04-19T13:45:23.999Z</time></trkpt><trkpt lat="48.350543470281906" lon="-4.000476846168055"><ele>156.0</ele><time>2026-04-19T13:45:24.999Z</time></trkpt><trkpt lat="48.3504639759238" lon="-4.000406599634328"><ele>157.0</ele><time>2026-04-19T13:45:25.999Z</time></trkpt><trkpt lat="48.350384751940716" lon="-4.000344566695666"><ele>158.0</ele><time>2026-04-19T13:45:26.999Z</time></trkpt><trkpt lat="48.35030237348452" lon="-4.000282257054944"><ele>159.0</ele><time>2026-04-19T13:45:27.999Z</time></trkpt><trkpt lat="48.350225493906855" lon="-4.000193420027673"><ele>159.2</ele><time>2026-04-19T13:45:28.999Z</time></trkpt><trkpt lat="48.350142927106226" lon="-4.000130099296713"><ele>159.4</ele><time>2026-04-19T13:45:29.999Z</time></trkpt><trkpt lat="48.35006677747271" lon="-4.000053631987078"><ele>159.6</ele><time>2026-04-19T13:45:30.999Z</time></trkpt><trkpt lat="48.35000402719762" lon="-3.9999522341024942"><ele>159.8</ele><time>2026-04-19T13:45:31.999Z</time></trkpt><trkpt lat="48.349953481015085" lon="-3.9998326157676867"><ele>160.0</ele><time>2026-04-19T13:45:32.999Z</time></trkpt><trkpt lat="48.34991937703429" lon="-3.9997052126478785"><ele>160.0</ele><time>2026-04-19T13:45:33.999Z</time></trkpt><trkpt lat="48.34989077919201" lon="-3.9995769946375583"><ele>160.0</ele><time>2026-04-19T13:45:34.999Z</time></trkpt><trkpt lat="48.34986375299915" lon="-3.999450303507957"><ele>160.0</ele><time>2026-04-19T13:45:35.999Z</time></trkpt><trkpt lat="48.34983708930128" lon="-3.9993258174900643"><ele>160.0</ele><time>2026-04-19T13:45:36.999Z</time></trkpt><trkpt lat="48.34979669426436" lon="-3.9992278996461477"><ele>160.0</ele><time>2026-04-19T13:45:37.999Z</time></trkpt><trkpt lat="48.349767195132095" lon="-3.9991225150730307"><ele>160.0</ele><time>2026-04-19T13:45:38.999Z</time></trkpt><trkpt lat="48.34973681333698" lon="-3.999014281555589"><ele>160.4</ele><time>2026-04-19T13:45:39.999Z</time></trkpt><trkpt lat="48.3497204402304" lon="-3.9988980099469043"><ele>160.8</ele><time>2026-04-19T13:45:40.999Z</time></trkpt><trkpt lat="48.34968292107601" lon="-3.998780355368796"><ele>161.2</ele><time>2026-04-19T13:45:41.999Z</time></trkpt><trkpt lat="48.3496471441202" lon="-3.9986496920803165"><ele>161.6</ele><time>2026-04-19T13:45:42.999Z</time></trkpt><trkpt lat="48.34958156538942" lon="-3.998477683378463"><ele>162.0</ele><time>2026-04-19T13:45:43.999Z</time></trkpt><trkpt lat="48.34951525396223" lon="-3.998293644684751"><ele>163.25</ele><time>2026-04-19T13:45:44.999Z</time></trkpt><trkpt lat="48.34943770119862" lon="-3.9981205494123495"><ele>164.5</ele><time>2026-04-19T13:45:45.999Z</time></trkpt><trkpt lat="48.34936420429907" lon="-3.9979651028252454"><ele>165.75</ele><time>2026-04-19T13:45:46.999Z</time></trkpt><trkpt lat="48.34927990259389" lon="-3.997838337687795"><ele>167.0</ele><time>2026-04-19T13:45:47.999Z</time></trkpt><trkpt lat="48.3492089965824" lon="-3.9977149211800675"><ele>167.0</ele><time>2026-04-19T13:45:48.999Z</time></trkpt><trkpt lat="48.349138214730544" lon="-3.997593679729564"><ele>167.0</ele><time>2026-04-19T13:45:49.999Z</time></trkpt><trkpt lat="48.349079968333726" lon="-3.997495540283786"><ele>167.0</ele><time>2026-04-19T13:45:50.999Z</time></trkpt><trkpt lat="48.349046546040796" lon="-3.997403402299565"><ele>167.0</ele><time>2026-04-19T13:45:51.999Z</time></trkpt><trkpt lat="48.34903559399883" lon="-3.9972743848235663"><ele>167.0</ele><time>2026-04-19T13:45:52.999Z</time></trkpt><trkpt lat="48.34902008807825" lon="-3.9971189700263325"><ele>166.8</ele><time>2026-04-19T13:45:53.999Z</time></trkpt><trkpt lat="48.348991638509666" lon="-3.9969645870988217"><ele>166.6</ele><time>2026-04-19T13:45:54.999Z</time></trkpt><trkpt lat="48.34895690588199" lon="-3.9968091365073333"><ele>166.4</ele><time>2026-04-19T13:45:55.999Z</time></trkpt><trkpt lat="48.34891570904358" lon="-3.9966463762840445"><ele>166.20000000000002</ele><time>2026-04-19T13:45:56.999Z</time></trkpt><trkpt lat="48.34889005511428" lon="-3.9964968451021843"><ele>166.0</ele><time>2026-04-19T13:45:57.999Z</time></trkpt><trkpt lat="48.34886081809179" lon="-3.9963674549517227"><ele>166.0</ele><time>2026-04-19T13:45:58.999Z</time></trkpt><trkpt lat="48.348836854835966" lon="-3.9962667059282295"><ele>166.0</ele><time>2026-04-19T13:45:59.999Z</time></trkpt><trkpt lat="48.34881603975891" lon="-3.9961479535108495"><ele>166.0</ele><time>2026-04-19T13:46:01.999Z</time></trkpt><trkpt lat="48.34870146642025" lon="-3.996094261439553"><ele>166.0</ele><time>2026-04-19T13:46:03.999Z</time></trkpt><trkpt lat="48.34863890586876" lon="-3.996018685543842"><ele>166.0</ele><time>2026-04-19T13:46:04.999Z</time></trkpt><trkpt lat="48.34854571684461" lon="-3.995950714091476"><ele>166.0</ele><time>2026-04-19T13:46:05.999Z</time></trkpt><trkpt lat="48.34846409600578" lon="-3.995857059782783"><ele>166.0</ele><time>2026-04-19T13:46:06.999Z</time></trkpt><trkpt lat="48.34836862858013" lon="-3.99574033870977"><ele>166.0</ele><time>2026-04-19T13:46:07.999Z</time></trkpt><trkpt lat="48.34827380890553" lon="-3.9956203402733035"><ele>166.0</ele><time>2026-04-19T13:46:08.999Z</time></trkpt><trkpt lat="48.348186117366225" lon="-3.9955045541927534"><ele>166.4</ele><time>2026-04-19T13:46:09.999Z</time></trkpt><trkpt lat="48.34809599483364" lon="-3.9953806848827966"><ele>166.8</ele><time>2026-04-19T13:46:10.999Z</time></trkpt><trkpt lat="48.348014905693105" lon="-3.9952629156835378"><ele>167.20000000000002</ele><time>2026-04-19T13:46:11.999Z</time></trkpt><trkpt lat="48.34794738360468" lon="-3.9951580057467693"><ele>167.60000000000002</ele><time>2026-04-19T13:46:12.999Z</time></trkpt><trkpt lat="48.34788854108419" lon="-3.995059714170871"><ele>168.0</ele><time>2026-04-19T13:46:13.999Z</time></trkpt><trkpt lat="48.347826670733866" lon="-3.994984507974887"><ele>167.2</ele><time>2026-04-19T13:46:14.999Z</time></trkpt><trkpt lat="48.34775353664477" lon="-3.9948483712738194"><ele>166.4</ele><time>2026-04-19T13:46:15.999Z</time></trkpt><trkpt lat="48.347685894186526" lon="-3.994717913045545"><ele>165.6</ele><time>2026-04-19T13:46:16.999Z</time></trkpt><trkpt lat="48.347637853809395" lon="-3.994573593296744"><ele>164.79999999999998</ele><time>2026-04-19T13:46:17.999Z</time></trkpt><trkpt lat="48.34756995213598" lon="-3.9944405887321253"><ele>164.0</ele><time>2026-04-19T13:46:18.999Z</time></trkpt><trkpt lat="48.34750976793963" lon="-3.994321247970094"><ele>164.0</ele><time>2026-04-19T13:46:19.999Z</time></trkpt><trkpt lat="48.347444124174324" lon="-3.994212336660765"><ele>164.0</ele><time>2026-04-19T13:46:20.999Z</time></trkpt><trkpt lat="48.347377913012856" lon="-3.9941186727138747"><ele>164.0</ele><time>2026-04-19T13:46:21.999Z</time></trkpt><trkpt lat="48.347328183300334" lon="-3.994033386948064"><ele>164.0</ele><time>2026-04-19T13:46:22.999Z</time></trkpt><trkpt lat="48.34728168191468" lon="-3.993957415599856"><ele>164.0</ele><time>2026-04-19T13:46:23.999Z</time></trkpt><trkpt lat="48.3473331156904" lon="-3.993762588183407"><ele>164.2</ele><time>2026-04-19T13:46:29.999Z</time></trkpt><trkpt lat="48.34726897391094" lon="-3.993612040970141"><ele>164.39999999999998</ele><time>2026-04-19T13:46:31.999Z</time></trkpt><trkpt lat="48.347194553857015" lon="-3.9934308102039835"><ele>164.6</ele><time>2026-04-19T13:46:33.999Z</time></trkpt><trkpt lat="48.34715794007946" lon="-3.9933416468513854"><ele>164.8</ele><time>2026-04-19T13:46:34.999Z</time></trkpt><trkpt lat="48.34712282675048" lon="-3.9932561372678714"><ele>165.0</ele><time>2026-04-19T13:46:35.999Z</time></trkpt><trkpt lat="48.34708198590472" lon="-3.993156679455721"><ele>165.0</ele><time>2026-04-19T13:46:36.999Z</time></trkpt><trkpt lat="48.34704301878972" lon="-3.9930617846529306"><ele>165.0</ele><time>2026-04-19T13:46:37.999Z</time></trkpt><trkpt lat="48.34700151658688" lon="-3.992979223066131"><ele>165.0</ele><time>2026-04-19T13:46:38.999Z</time></trkpt><trkpt lat="48.346967836585435" lon="-3.992878696917423"><ele>165.0</ele><time>2026-04-19T13:46:39.999Z</time></trkpt><trkpt lat="48.3469975584861" lon="-3.9927331179910484"><ele>165.0</ele><time>2026-04-19T13:46:40.999Z</time></trkpt><trkpt lat="48.347047352541516" lon="-3.992564710145586"><ele>165.0</ele><time>2026-04-19T13:46:42.999Z</time></trkpt><trkpt lat="48.347085828026366" lon="-3.992468590128019"><ele>166.5</ele><time>2026-04-19T13:46:43.999Z</time></trkpt><trkpt lat="48.34710843726692" lon="-3.9923653314323366"><ele>168.0</ele><time>2026-04-19T13:46:44.999Z</time></trkpt><trkpt lat="48.34717649828417" lon="-3.9922291222705892"><ele>169.5</ele><time>2026-04-19T13:46:46.999Z</time></trkpt><trkpt lat="48.3472133584517" lon="-3.992130471567325"><ele>171.0</ele><time>2026-04-19T13:46:48.999Z</time></trkpt><trkpt lat="48.34726926836307" lon="-3.992073927384965"><ele>172.5</ele><time>2026-04-19T13:46:50.999Z</time></trkpt><trkpt lat="48.34732453534955" lon="-3.9920045228225978"><ele>174.0</ele><time>2026-04-19T13:46:51.999Z</time></trkpt><trkpt lat="48.347386793804354" lon="-3.9919339026736926"><ele>175.33333333333334</ele><time>2026-04-19T13:46:52.999Z</time></trkpt><trkpt lat="48.34745746200771" lon="-3.991877716293649"><ele>176.66666666666666</ele><time>2026-04-19T13:46:53.999Z</time></trkpt><trkpt lat="48.347528321797824" lon="-3.9918100557912135"><ele>178.0</ele><time>2026-04-19T13:46:54.999Z</time></trkpt><trkpt lat="48.34760197822995" lon="-3.9917521008367567"><ele>179.33333333333331</ele><time>2026-04-19T13:46:55.999Z</time></trkpt><trkpt lat="48.347632541911196" lon="-3.9916648605744336"><ele>180.66666666666666</ele><time>2026-04-19T13:46:57.999Z</time></trkpt><trkpt lat="48.347580801163225" lon="-3.991494401741388"><ele>182.0</ele><time>2026-04-19T13:46:59.999Z</time></trkpt><trkpt lat="48.34755997593019" lon="-3.9913645586814455"><ele>183.39999999999998</ele><time>2026-04-19T13:47:00.999Z</time></trkpt><trkpt lat="48.34754363326751" lon="-3.9912298201979493"><ele>184.79999999999998</ele><time>2026-04-19T13:47:01.999Z</time></trkpt><trkpt lat="48.347530119160474" lon="-3.991116406892546"><ele>186.2</ele><time>2026-04-19T13:47:02.999Z</time></trkpt><trkpt lat="48.34750738765445" lon="-3.990961516206266"><ele>187.6</ele><time>2026-04-19T13:47:03.999Z</time></trkpt><trkpt lat="48.34748400252161" lon="-3.990821619290114"><ele>189.0</ele><time>2026-04-19T13:47:04.999Z</time></trkpt><trkpt lat="48.34746214842748" lon="-3.990681705749672"><ele>189.39999999999998</ele><time>2026-04-19T13:47:05.999Z</time></trkpt><trkpt lat="48.34743338778208" lon="-3.990526034130605"><ele>189.8</ele><time>2026-04-19T13:47:06.999Z</time></trkpt><trkpt lat="48.347402898730415" lon="-3.99039414507715"><ele>190.2</ele><time>2026-04-19T13:47:07.999Z</time></trkpt><trkpt lat="48.347370638797855" lon="-3.9902492580082267"><ele>190.60000000000002</ele><time>2026-04-19T13:47:08.999Z</time></trkpt><trkpt lat="48.34734049674583" lon="-3.9901043454484277"><ele>191.0</ele><time>2026-04-19T13:47:09.999Z</time></trkpt><trkpt lat="48.347306965328954" lon="-3.989970796803589"><ele>191.60000000000002</ele><time>2026-04-19T13:47:10.999Z</time></trkpt><trkpt lat="48.34726297942304" lon="-3.9898359976542976"><ele>192.2</ele><time>2026-04-19T13:47:11.999Z</time></trkpt><trkpt lat="48.3472382759476" lon="-3.989722484180662"><ele>192.8</ele><time>2026-04-19T13:47:12.999Z</time></trkpt><trkpt lat="48.347224924024594" lon="-3.9895832058466576"><ele>193.39999999999998</ele><time>2026-04-19T13:47:13.999Z</time></trkpt><trkpt lat="48.34722391341322" lon="-3.9894229375149544"><ele>194.0</ele><time>2026-04-19T13:47:14.999Z</time></trkpt><trkpt lat="48.34719790107619" lon="-3.9892450973168456"><ele>193.2</ele><time>2026-04-19T13:47:15.999Z</time></trkpt><trkpt lat="48.347184514670715" lon="-3.989081116676276"><ele>192.39999999999998</ele><time>2026-04-19T13:47:16.999Z</time></trkpt><trkpt lat="48.34715470486121" lon="-3.988933673969674"><ele>191.6</ele><time>2026-04-19T13:47:17.999Z</time></trkpt><trkpt lat="48.347130918574685" lon="-3.9887778868947597"><ele>190.8</ele><time>2026-04-19T13:47:18.999Z</time></trkpt><trkpt lat="48.347123839232594" lon="-3.9886183439759604"><ele>190.0</ele><time>2026-04-19T13:47:19.999Z</time></trkpt><trkpt lat="48.347126578218834" lon="-3.988450604696384"><ele>190.0</ele><time>2026-04-19T13:47:20.999Z</time></trkpt><trkpt lat="48.34711860161289" lon="-3.9882859004702444"><ele>190.0</ele><time>2026-04-19T13:47:21.999Z</time></trkpt><trkpt lat="48.34710166167558" lon="-3.9881330544904903"><ele>190.0</ele><time>2026-04-19T13:47:22.999Z</time></trkpt><trkpt lat="48.347091653032216" lon="-3.9879925398360183"><ele>190.0</ele><time>2026-04-19T13:47:23.999Z</time></trkpt><trkpt lat="48.34707411153956" lon="-3.9878452923108227"><ele>190.0</ele><time>2026-04-19T13:47:24.999Z</time></trkpt><trkpt lat="48.34704505663885" lon="-3.9877049593782763"><ele>190.0</ele><time>2026-04-19T13:47:25.999Z</time></trkpt><trkpt lat="48.34702624595427" lon="-3.9875601519851482"><ele>190.0</ele><time>2026-04-19T13:47:26.999Z</time></trkpt><trkpt lat="48.34700331867596" lon="-3.98742448714286"><ele>190.0</ele><time>2026-04-19T13:47:27.999Z</time></trkpt><trkpt lat="48.3469909233585" lon="-3.9872931206972355"><ele>190.0</ele><time>2026-04-19T13:47:28.999Z</time></trkpt><trkpt lat="48.346976904878304" lon="-3.9871816398348217"><ele>190.0</ele><time>2026-04-19T13:47:29.999Z</time></trkpt><trkpt lat="48.34696069509424" lon="-3.987049378252384"><ele>190.0</ele><time>2026-04-19T13:47:31.999Z</time></trkpt><trkpt lat="48.3468887716615" lon="-3.987141821245495"><ele>190.2</ele><time>2026-04-19T13:47:34.999Z</time></trkpt><trkpt lat="48.346770088871494" lon="-3.987206577232135"><ele>190.4</ele><time>2026-04-19T13:47:36.999Z</time></trkpt><trkpt lat="48.346686222348445" lon="-3.98723251162383"><ele>190.60000000000002</ele><time>2026-04-19T13:47:37.999Z</time></trkpt><trkpt lat="48.34661665214725" lon="-3.9872431317184316"><ele>190.8</ele><time>2026-04-19T13:47:38.999Z</time></trkpt><trkpt lat="48.34654435606685" lon="-3.9872691457772693"><ele>191.0</ele><time>2026-04-19T13:47:39.999Z</time></trkpt><trkpt lat="48.34643698666945" lon="-3.9872985973676713"><ele>191.0</ele><time>2026-04-19T13:47:41.999Z</time></trkpt><trkpt lat="48.34633690659572" lon="-3.9873299946786798"><ele>191.0</ele><time>2026-04-19T13:47:43.999Z</time></trkpt><trkpt lat="48.346299801146856" lon="-3.9872202992514234"><ele>191.0</ele><time>2026-04-19T13:48:18.999Z</time></trkpt><trkpt lat="48.346308382845855" lon="-3.9871039596729028"><ele>191.0</ele><time>2026-04-19T13:48:28Z</time></trkpt><trkpt lat="48.34628198637831" lon="-3.986978950410986"><ele>191.0</ele><time>2026-04-19T13:48:30Z</time></trkpt><trkpt lat="48.3463868788936" lon="-3.9868747840482666"><ele>190.83333333333331</ele><time>2026-04-19T13:48:33Z</time></trkpt><trkpt lat="48.346377171854435" lon="-3.9867397728624563"><ele>190.66666666666666</ele><time>2026-04-19T13:48:35Z</time></trkpt><trkpt lat="48.34635302238762" lon="-3.986624234652853"><ele>190.5</ele><time>2026-04-19T13:48:39Z</time></trkpt><trkpt lat="48.346298592617586" lon="-3.986536782723335"><ele>190.33333333333334</ele><time>2026-04-19T13:48:41Z</time></trkpt><trkpt lat="48.346226745670144" lon="-3.9864842065379587"><ele>190.16666666666669</ele><time>2026-04-19T13:48:47Z</time></trkpt><trkpt lat="48.34615831090623" lon="-3.986426068767294"><ele>190.0</ele><time>2026-04-19T13:48:50Z</time></trkpt><trkpt lat="48.34610868500061" lon="-3.98635394727431"><ele>190.66666666666669</ele><time>2026-04-19T13:48:56Z</time></trkpt><trkpt lat="48.346032228166855" lon="-3.986318252983279"><ele>191.33333333333334</ele><time>2026-04-19T13:48:58Z</time></trkpt><trkpt lat="48.345975361719105" lon="-3.9863655680940764"><ele>192.0</ele><time>2026-04-19T13:49:00Z</time></trkpt><trkpt lat="48.34589363629114" lon="-3.9864337106279675"><ele>192.66666666666669</ele><time>2026-04-19T13:49:03Z</time></trkpt><trkpt lat="48.34582549846782" lon="-3.986383321744405"><ele>193.33333333333334</ele><time>2026-04-19T13:49:05Z</time></trkpt><trkpt lat="48.34575757748506" lon="-3.9863650975220275"><ele>194.0</ele><time>2026-04-19T13:49:07Z</time></trkpt><trkpt lat="48.34567626125655" lon="-3.9864049604091814"><ele>194.00000000000003</ele><time>2026-04-19T13:49:09Z</time></trkpt><trkpt lat="48.345608317481144" lon="-3.9864478035022426"><ele>194.0</ele><time>2026-04-19T13:49:13Z</time></trkpt><trkpt lat="48.345514132137644" lon="-3.986433380030121"><ele>194.0</ele><time>2026-04-19T13:49:16Z</time></trkpt><trkpt lat="48.34544220869577" lon="-3.986396404289253"><ele>194.0</ele><time>2026-04-19T13:49:19Z</time></trkpt><trkpt lat="48.345358840811315" lon="-3.986462806037937"><ele>194.00000000000003</ele><time>2026-04-19T13:49:22Z</time></trkpt><trkpt lat="48.34527117734048" lon="-3.9864173629464146"><ele>194.0</ele><time>2026-04-19T13:49:25Z</time></trkpt><trkpt lat="48.345196414088385" lon="-3.9864207039183444"><ele>191.79999999999998</ele><time>2026-04-19T13:49:27Z</time></trkpt><trkpt lat="48.34510654048159" lon="-3.98648455966679"><ele>189.6</ele><time>2026-04-19T13:49:29.999Z</time></trkpt><trkpt lat="48.34504813546999" lon="-3.9865416770199964"><ele>187.4</ele><time>2026-04-19T13:49:31.999Z</time></trkpt><trkpt lat="48.34492802578183" lon="-3.9865920620269746"><ele>185.2</ele><time>2026-04-19T13:49:33.999Z</time></trkpt><trkpt lat="48.344832489413356" lon="-3.986665712177311"><ele>183.0</ele><time>2026-04-19T13:49:35.999Z</time></trkpt><trkpt lat="48.34476994036642" lon="-3.9866342474741625"><ele>182.33333333333334</ele><time>2026-04-19T13:49:38.999Z</time></trkpt><trkpt lat="48.3446933341292" lon="-3.9866732397499214"><ele>181.66666666666666</ele><time>2026-04-19T13:49:40.999Z</time></trkpt><trkpt lat="48.3447171944997" lon="-3.986779330897779"><ele>181.0</ele><time>2026-04-19T13:49:52.999Z</time></trkpt><trkpt lat="48.34464432144468" lon="-3.9867249006881105"><ele>180.33333333333331</ele><time>2026-04-19T13:50:32Z</time></trkpt><trkpt lat="48.34457113912478" lon="-3.986754248298131"><ele>179.66666666666666</ele><time>2026-04-19T13:50:36Z</time></trkpt><trkpt lat="48.34452202344114" lon="-3.9866827660022026"><ele>179.0</ele><time>2026-04-19T13:50:42Z</time></trkpt><trkpt lat="48.344477551145204" lon="-3.9865824643424927"><ele>178.5</ele><time>2026-04-19T13:50:51Z</time></trkpt><trkpt lat="48.344388632144884" lon="-3.9865834752319245"><ele>178.0</ele><time>2026-04-19T13:50:54Z</time></trkpt><trkpt lat="48.34432103541766" lon="-3.986559735200781"><ele>177.5</ele><time>2026-04-19T13:50:59Z</time></trkpt><trkpt lat="48.34424723313593" lon="-3.986544936461474"><ele>177.0</ele><time>2026-04-19T13:51:01Z</time></trkpt><trkpt lat="48.344188824557186" lon="-3.9865076596755094"><ele>176.5</ele><time>2026-04-19T13:51:04Z</time></trkpt><trkpt lat="48.344124818315606" lon="-3.9864012912930136"><ele>176.0</ele><time>2026-04-19T13:51:06Z</time></trkpt><trkpt lat="48.34404239792316" lon="-3.9863543706376445"><ele>176.0</ele><time>2026-04-19T13:51:09Z</time></trkpt><trkpt lat="48.34398018807817" lon="-3.9863962348411333"><ele>176.0</ele><time>2026-04-19T13:51:15Z</time></trkpt><trkpt lat="48.344036082054416" lon="-3.98645582637988"><ele>176.0</ele><time>2026-04-19T13:51:36Z</time></trkpt><trkpt lat="48.34407886263943" lon="-3.9865821399704053"><ele>176.0</ele><time>2026-04-19T13:51:38Z</time></trkpt><trkpt lat="48.344118676622486" lon="-3.9866752092754583"><ele>176.0</ele><time>2026-04-19T13:51:40Z</time></trkpt><trkpt lat="48.34416420501412" lon="-3.98678245928637"><ele>176.0</ele><time>2026-04-19T13:51:56Z</time></trkpt><trkpt lat="48.34424167601387" lon="-3.986870745374012"><ele>175.83333333333331</ele><time>2026-04-19T13:51:59Z</time></trkpt><trkpt lat="48.34430194746895" lon="-3.987001401672706"><ele>175.66666666666666</ele><time>2026-04-19T13:52:01Z</time></trkpt><trkpt lat="48.344411707563516" lon="-3.9869482589939507"><ele>175.5</ele><time>2026-04-19T13:52:04Z</time></trkpt><trkpt lat="48.34448563692399" lon="-3.9869165044032693"><ele>175.33333333333334</ele><time>2026-04-19T13:52:13Z</time></trkpt><trkpt lat="48.34455313854541" lon="-3.9869387283173965"><ele>175.16666666666669</ele><time>2026-04-19T13:52:18Z</time></trkpt><trkpt lat="48.34454229859272" lon="-3.9870426668272105"><ele>175.0</ele><time>2026-04-19T13:52:20Z</time></trkpt><trkpt lat="48.34457442564394" lon="-3.987155625223372"><ele>175.0</ele><time>2026-04-19T13:52:25Z</time></trkpt><trkpt lat="48.344582892847924" lon="-3.987254305867501"><ele>175.0</ele><time>2026-04-19T13:52:28Z</time></trkpt></trkseg></trk></gpx>